<?xml version="1.0" encoding="UTF-8" standalone="no" ?>
<gpx xmlns="http://www.topografix.com/GPX/1/1" xmlns:xsi="http://www.w3.org/2001/XMLSchema-instance" xsi:schemaLocation="http://www.topografix.com/GPX/1/1 http://www.topografix.com/GPX/1/1/gpx.xsd" version="1.1" creator="VisuGPX - https://www.visugpx.com">
  <metadata>
    <name>secteur Saverne - Dabo - Petite Pierre</name>
  </metadata>
  <trk>
    <name><![CDATA[saved]]></name>
    <trkseg>
      <trkpt lat="48.54871" lon="7.19248">
        <ele>878.8</ele>
        <time>2020-11-28T12:56:03Z</time>
      </trkpt>
      <trkpt lat="48.54871" lon="7.19248">
        <ele>878.8</ele>
        <time>2020-11-28T12:56:03Z</time>
      </trkpt>
      <trkpt lat="48.54871" lon="7.19248">
        <ele>878.8</ele>
        <time>2020-11-28T12:56:03Z</time>
      </trkpt>
      <trkpt lat="48.54871" lon="7.19248">
        <ele>878.8</ele>
        <time>2020-11-28T12:56:03Z</time>
      </trkpt>
      <trkpt lat="48.54871" lon="7.19248">
        <ele>878.8</ele>
        <time>2020-11-28T12:56:03Z</time>
      </trkpt>
      <trkpt lat="48.54867" lon="7.19243">
        <ele>874.5</ele>
        <time>2020-11-28T12:57:21Z</time>
      </trkpt>
      <trkpt lat="48.54863" lon="7.19236">
        <ele>873.8</ele>
        <time>2020-11-28T12:57:25Z</time>
      </trkpt>
      <trkpt lat="48.54861" lon="7.1923">
        <ele>873.2</ele>
        <time>2020-11-28T12:57:28Z</time>
      </trkpt>
      <trkpt lat="48.54858" lon="7.19225">
        <ele>873.1</ele>
        <time>2020-11-28T12:57:31Z</time>
      </trkpt>
      <trkpt lat="48.54855" lon="7.19219">
        <ele>872.3</ele>
        <time>2020-11-28T12:57:35Z</time>
      </trkpt>
      <trkpt lat="48.54851" lon="7.19213">
        <ele>871.1</ele>
        <time>2020-11-28T12:57:38Z</time>
      </trkpt>
      <trkpt lat="48.54845" lon="7.19211">
        <ele>870.3</ele>
        <time>2020-11-28T12:57:41Z</time>
      </trkpt>
      <trkpt lat="48.54841" lon="7.19211">
        <ele>868.2</ele>
        <time>2020-11-28T12:57:51Z</time>
      </trkpt>
      <trkpt lat="48.54837" lon="7.19207">
        <ele>868.2</ele>
        <time>2020-11-28T12:58:27Z</time>
      </trkpt>
      <trkpt lat="48.54832" lon="7.19206">
        <ele>870.2</ele>
        <time>2020-11-28T12:58:34Z</time>
      </trkpt>
      <trkpt lat="48.54829" lon="7.19201">
        <ele>870.2</ele>
        <time>2020-11-28T12:58:39Z</time>
      </trkpt>
      <trkpt lat="48.54824" lon="7.192">
        <ele>870</ele>
        <time>2020-11-28T12:58:45Z</time>
      </trkpt>
      <trkpt lat="48.5482" lon="7.192">
        <ele>863.5</ele>
        <time>2020-11-28T12:59:02Z</time>
      </trkpt>
      <trkpt lat="48.54816" lon="7.19194">
        <ele>860.3</ele>
        <time>2020-11-28T12:59:09Z</time>
      </trkpt>
      <trkpt lat="48.54812" lon="7.19192">
        <ele>857.1</ele>
        <time>2020-11-28T12:59:20Z</time>
      </trkpt>
      <trkpt lat="48.54808" lon="7.19188">
        <ele>857.6</ele>
        <time>2020-11-28T12:59:30Z</time>
      </trkpt>
      <trkpt lat="48.54803" lon="7.19188">
        <ele>852.2</ele>
        <time>2020-11-28T12:59:37Z</time>
      </trkpt>
      <trkpt lat="48.54798" lon="7.19187">
        <ele>850.8</ele>
        <time>2020-11-28T12:59:42Z</time>
      </trkpt>
      <trkpt lat="48.54793" lon="7.19186">
        <ele>849.8</ele>
        <time>2020-11-28T12:59:49Z</time>
      </trkpt>
      <trkpt lat="48.54788" lon="7.19183">
        <ele>848.6</ele>
        <time>2020-11-28T12:59:54Z</time>
      </trkpt>
      <trkpt lat="48.54784" lon="7.19178">
        <ele>846.8</ele>
        <time>2020-11-28T12:59:59Z</time>
      </trkpt>
      <trkpt lat="48.5478" lon="7.19174">
        <ele>842.6</ele>
        <time>2020-11-28T13:00:12Z</time>
      </trkpt>
      <trkpt lat="48.54776" lon="7.1917">
        <ele>841</ele>
        <time>2020-11-28T13:00:19Z</time>
      </trkpt>
      <trkpt lat="48.54771" lon="7.19167">
        <ele>839.6</ele>
        <time>2020-11-28T13:00:26Z</time>
      </trkpt>
      <trkpt lat="48.54766" lon="7.19168">
        <ele>836.8</ele>
        <time>2020-11-28T13:00:35Z</time>
      </trkpt>
      <trkpt lat="48.54761" lon="7.19166">
        <ele>834.9</ele>
        <time>2020-11-28T13:00:41Z</time>
      </trkpt>
      <trkpt lat="48.54756" lon="7.19164">
        <ele>831.2</ele>
        <time>2020-11-28T13:00:50Z</time>
      </trkpt>
      <trkpt lat="48.54754" lon="7.19158">
        <ele>826.6</ele>
        <time>2020-11-28T13:01:07Z</time>
      </trkpt>
      <trkpt lat="48.54749" lon="7.19155">
        <ele>821.3</ele>
        <time>2020-11-28T13:01:19Z</time>
      </trkpt>
      <trkpt lat="48.54745" lon="7.19152">
        <ele>816.4</ele>
        <time>2020-11-28T13:01:31Z</time>
      </trkpt>
      <trkpt lat="48.5474" lon="7.19149">
        <ele>814.9</ele>
        <time>2020-11-28T13:01:39Z</time>
      </trkpt>
      <trkpt lat="48.54736" lon="7.19147">
        <ele>813.9</ele>
        <time>2020-11-28T13:01:44Z</time>
      </trkpt>
      <trkpt lat="48.5473" lon="7.19147">
        <ele>813.5</ele>
        <time>2020-11-28T13:01:49Z</time>
      </trkpt>
      <trkpt lat="48.54725" lon="7.19144">
        <ele>812.4</ele>
        <time>2020-11-28T13:01:54Z</time>
      </trkpt>
      <trkpt lat="48.54721" lon="7.1914">
        <ele>810.5</ele>
        <time>2020-11-28T13:01:59Z</time>
      </trkpt>
      <trkpt lat="48.54716" lon="7.19139">
        <ele>809.1</ele>
        <time>2020-11-28T13:02:03Z</time>
      </trkpt>
      <trkpt lat="48.54712" lon="7.19136">
        <ele>807.9</ele>
        <time>2020-11-28T13:02:13Z</time>
      </trkpt>
      <trkpt lat="48.54708" lon="7.19132">
        <ele>807.1</ele>
        <time>2020-11-28T13:02:17Z</time>
      </trkpt>
      <trkpt lat="48.54704" lon="7.19126">
        <ele>805.2</ele>
        <time>2020-11-28T13:02:21Z</time>
      </trkpt>
      <trkpt lat="48.54698" lon="7.19125">
        <ele>803.8</ele>
        <time>2020-11-28T13:02:24Z</time>
      </trkpt>
      <trkpt lat="48.54692" lon="7.19124">
        <ele>799.6</ele>
        <time>2020-11-28T13:04:57Z</time>
      </trkpt>
      <trkpt lat="48.54687" lon="7.19121">
        <ele>798.5</ele>
        <time>2020-11-28T13:05:00Z</time>
      </trkpt>
      <trkpt lat="48.54682" lon="7.19117">
        <ele>797</ele>
        <time>2020-11-28T13:05:03Z</time>
      </trkpt>
      <trkpt lat="48.54678" lon="7.19114">
        <ele>795.5</ele>
        <time>2020-11-28T13:05:06Z</time>
      </trkpt>
      <trkpt lat="48.54673" lon="7.19113">
        <ele>794.9</ele>
        <time>2020-11-28T13:05:10Z</time>
      </trkpt>
      <trkpt lat="48.54668" lon="7.19113">
        <ele>794.8</ele>
        <time>2020-11-28T13:05:13Z</time>
      </trkpt>
      <trkpt lat="48.54663" lon="7.19113">
        <ele>794</ele>
        <time>2020-11-28T13:05:17Z</time>
      </trkpt>
      <trkpt lat="48.54658" lon="7.19108">
        <ele>791.8</ele>
        <time>2020-11-28T13:05:21Z</time>
      </trkpt>
      <trkpt lat="48.54654" lon="7.19104">
        <ele>790.2</ele>
        <time>2020-11-28T13:05:24Z</time>
      </trkpt>
      <trkpt lat="48.54649" lon="7.19099">
        <ele>789.2</ele>
        <time>2020-11-28T13:05:28Z</time>
      </trkpt>
      <trkpt lat="48.54644" lon="7.19095">
        <ele>789.7</ele>
        <time>2020-11-28T13:05:31Z</time>
      </trkpt>
      <trkpt lat="48.54639" lon="7.19094">
        <ele>788.5</ele>
        <time>2020-11-28T13:05:34Z</time>
      </trkpt>
      <trkpt lat="48.54633" lon="7.19092">
        <ele>786.9</ele>
        <time>2020-11-28T13:05:37Z</time>
      </trkpt>
      <trkpt lat="48.54628" lon="7.1909">
        <ele>784.8</ele>
        <time>2020-11-28T13:05:40Z</time>
      </trkpt>
      <trkpt lat="48.54624" lon="7.19089">
        <ele>782.3</ele>
        <time>2020-11-28T13:05:47Z</time>
      </trkpt>
      <trkpt lat="48.54619" lon="7.19087">
        <ele>780.5</ele>
        <time>2020-11-28T13:05:52Z</time>
      </trkpt>
      <trkpt lat="48.54614" lon="7.19087">
        <ele>778.3</ele>
        <time>2020-11-28T13:05:58Z</time>
      </trkpt>
      <trkpt lat="48.5461" lon="7.19083">
        <ele>777.1</ele>
        <time>2020-11-28T13:06:03Z</time>
      </trkpt>
      <trkpt lat="48.54605" lon="7.19083">
        <ele>773.9</ele>
        <time>2020-11-28T13:06:19Z</time>
      </trkpt>
      <trkpt lat="48.546" lon="7.19081">
        <ele>773.1</ele>
        <time>2020-11-28T13:06:22Z</time>
      </trkpt>
      <trkpt lat="48.54596" lon="7.19077">
        <ele>771.5</ele>
        <time>2020-11-28T13:06:25Z</time>
      </trkpt>
      <trkpt lat="48.54591" lon="7.19073">
        <ele>770.1</ele>
        <time>2020-11-28T13:06:28Z</time>
      </trkpt>
      <trkpt lat="48.54586" lon="7.1907">
        <ele>769.6</ele>
        <time>2020-11-28T13:06:31Z</time>
      </trkpt>
      <trkpt lat="48.54581" lon="7.19069">
        <ele>768.5</ele>
        <time>2020-11-28T13:06:35Z</time>
      </trkpt>
      <trkpt lat="48.54575" lon="7.19066">
        <ele>768.3</ele>
        <time>2020-11-28T13:06:39Z</time>
      </trkpt>
      <trkpt lat="48.5457" lon="7.19064">
        <ele>767.4</ele>
        <time>2020-11-28T13:06:42Z</time>
      </trkpt>
      <trkpt lat="48.54564" lon="7.1906">
        <ele>765</ele>
        <time>2020-11-28T13:06:45Z</time>
      </trkpt>
      <trkpt lat="48.5456" lon="7.19057">
        <ele>763.6</ele>
        <time>2020-11-28T13:06:47Z</time>
      </trkpt>
      <trkpt lat="48.54555" lon="7.19053">
        <ele>762.1</ele>
        <time>2020-11-28T13:06:49Z</time>
      </trkpt>
      <trkpt lat="48.5455" lon="7.1905">
        <ele>759.6</ele>
        <time>2020-11-28T13:06:51Z</time>
      </trkpt>
      <trkpt lat="48.54544" lon="7.19047">
        <ele>757.9</ele>
        <time>2020-11-28T13:06:53Z</time>
      </trkpt>
      <trkpt lat="48.54537" lon="7.19043">
        <ele>755.5</ele>
        <time>2020-11-28T13:06:55Z</time>
      </trkpt>
      <trkpt lat="48.54531" lon="7.19038">
        <ele>754</ele>
        <time>2020-11-28T13:06:57Z</time>
      </trkpt>
      <trkpt lat="48.54527" lon="7.19027">
        <ele>752</ele>
        <time>2020-11-28T13:06:59Z</time>
      </trkpt>
      <trkpt lat="48.54521" lon="7.19014">
        <ele>750.4</ele>
        <time>2020-11-28T13:07:01Z</time>
      </trkpt>
      <trkpt lat="48.54515" lon="7.19006">
        <ele>749.3</ele>
        <time>2020-11-28T13:07:03Z</time>
      </trkpt>
      <trkpt lat="48.54512" lon="7.19001">
        <ele>764.8</ele>
        <time>2020-11-28T13:07:07Z</time>
      </trkpt>
      <trkpt lat="48.54509" lon="7.19008">
        <ele>753.8</ele>
        <time>2020-11-28T13:07:15Z</time>
      </trkpt>
      <trkpt lat="48.54507" lon="7.19015">
        <ele>749.7</ele>
        <time>2020-11-28T13:07:18Z</time>
      </trkpt>
      <trkpt lat="48.54503" lon="7.19017">
        <ele>742</ele>
        <time>2020-11-28T13:08:03Z</time>
      </trkpt>
      <trkpt lat="48.54507" lon="7.19017">
        <ele>741.7</ele>
        <time>2020-11-28T13:08:18Z</time>
      </trkpt>
      <trkpt lat="48.54506" lon="7.19009">
        <ele>763</ele>
        <time>2020-11-28T13:09:04Z</time>
      </trkpt>
      <trkpt lat="48.54503" lon="7.19017">
        <ele>748.6</ele>
        <time>2020-11-28T13:10:09Z</time>
      </trkpt>
      <trkpt lat="48.54498" lon="7.19024">
        <ele>744.7</ele>
        <time>2020-11-28T13:10:12Z</time>
      </trkpt>
      <trkpt lat="48.54493" lon="7.19027">
        <ele>742.6</ele>
        <time>2020-11-28T13:10:14Z</time>
      </trkpt>
      <trkpt lat="48.54488" lon="7.1903">
        <ele>740.9</ele>
        <time>2020-11-28T13:10:16Z</time>
      </trkpt>
      <trkpt lat="48.54483" lon="7.19033">
        <ele>739</ele>
        <time>2020-11-28T13:10:18Z</time>
      </trkpt>
      <trkpt lat="48.54479" lon="7.19035">
        <ele>737.9</ele>
        <time>2020-11-28T13:10:20Z</time>
      </trkpt>
      <trkpt lat="48.54475" lon="7.19038">
        <ele>736.9</ele>
        <time>2020-11-28T13:10:22Z</time>
      </trkpt>
      <trkpt lat="48.5447" lon="7.19043">
        <ele>736.2</ele>
        <time>2020-11-28T13:10:24Z</time>
      </trkpt>
      <trkpt lat="48.54464" lon="7.19048">
        <ele>735.6</ele>
        <time>2020-11-28T13:10:26Z</time>
      </trkpt>
      <trkpt lat="48.54458" lon="7.19054">
        <ele>735.4</ele>
        <time>2020-11-28T13:10:28Z</time>
      </trkpt>
      <trkpt lat="48.54452" lon="7.19061">
        <ele>735</ele>
        <time>2020-11-28T13:10:30Z</time>
      </trkpt>
      <trkpt lat="48.54445" lon="7.19068">
        <ele>735.2</ele>
        <time>2020-11-28T13:10:32Z</time>
      </trkpt>
      <trkpt lat="48.54439" lon="7.19074">
        <ele>734.9</ele>
        <time>2020-11-28T13:10:34Z</time>
      </trkpt>
      <trkpt lat="48.54433" lon="7.19079">
        <ele>734.6</ele>
        <time>2020-11-28T13:10:36Z</time>
      </trkpt>
      <trkpt lat="48.54427" lon="7.19085">
        <ele>735</ele>
        <time>2020-11-28T13:10:38Z</time>
      </trkpt>
      <trkpt lat="48.5442" lon="7.19091">
        <ele>734.9</ele>
        <time>2020-11-28T13:10:40Z</time>
      </trkpt>
      <trkpt lat="48.54414" lon="7.19096">
        <ele>735</ele>
        <time>2020-11-28T13:10:42Z</time>
      </trkpt>
      <trkpt lat="48.54407" lon="7.191">
        <ele>734.8</ele>
        <time>2020-11-28T13:10:44Z</time>
      </trkpt>
      <trkpt lat="48.54401" lon="7.19104">
        <ele>733.9</ele>
        <time>2020-11-28T13:10:46Z</time>
      </trkpt>
      <trkpt lat="48.54394" lon="7.19106">
        <ele>733</ele>
        <time>2020-11-28T13:10:48Z</time>
      </trkpt>
      <trkpt lat="48.54388" lon="7.19109">
        <ele>733.3</ele>
        <time>2020-11-28T13:10:50Z</time>
      </trkpt>
      <trkpt lat="48.54381" lon="7.19111">
        <ele>732.5</ele>
        <time>2020-11-28T13:10:52Z</time>
      </trkpt>
      <trkpt lat="48.54375" lon="7.19114">
        <ele>732.6</ele>
        <time>2020-11-28T13:10:54Z</time>
      </trkpt>
      <trkpt lat="48.54368" lon="7.19117">
        <ele>733.2</ele>
        <time>2020-11-28T13:10:56Z</time>
      </trkpt>
      <trkpt lat="48.5436" lon="7.1912">
        <ele>733.5</ele>
        <time>2020-11-28T13:10:58Z</time>
      </trkpt>
      <trkpt lat="48.54352" lon="7.19124">
        <ele>734</ele>
        <time>2020-11-28T13:11:00Z</time>
      </trkpt>
      <trkpt lat="48.54342" lon="7.19129">
        <ele>734.1</ele>
        <time>2020-11-28T13:11:02Z</time>
      </trkpt>
      <trkpt lat="48.54334" lon="7.19134">
        <ele>734.4</ele>
        <time>2020-11-28T13:11:04Z</time>
      </trkpt>
      <trkpt lat="48.54327" lon="7.19137">
        <ele>734.5</ele>
        <time>2020-11-28T13:11:06Z</time>
      </trkpt>
      <trkpt lat="48.54319" lon="7.19143">
        <ele>735.5</ele>
        <time>2020-11-28T13:11:08Z</time>
      </trkpt>
      <trkpt lat="48.5431" lon="7.19147">
        <ele>735.9</ele>
        <time>2020-11-28T13:11:10Z</time>
      </trkpt>
      <trkpt lat="48.54303" lon="7.19152">
        <ele>736.1</ele>
        <time>2020-11-28T13:11:12Z</time>
      </trkpt>
      <trkpt lat="48.54291" lon="7.19158">
        <ele>737.2</ele>
        <time>2020-11-28T13:11:15Z</time>
      </trkpt>
      <trkpt lat="48.54285" lon="7.19161">
        <ele>738</ele>
        <time>2020-11-28T13:11:17Z</time>
      </trkpt>
      <trkpt lat="48.54279" lon="7.19163">
        <ele>738.7</ele>
        <time>2020-11-28T13:11:19Z</time>
      </trkpt>
      <trkpt lat="48.54272" lon="7.19164">
        <ele>739.2</ele>
        <time>2020-11-28T13:11:21Z</time>
      </trkpt>
      <trkpt lat="48.54266" lon="7.19165">
        <ele>739.2</ele>
        <time>2020-11-28T13:11:23Z</time>
      </trkpt>
      <trkpt lat="48.54256" lon="7.19165">
        <ele>739.4</ele>
        <time>2020-11-28T13:11:26Z</time>
      </trkpt>
      <trkpt lat="48.54249" lon="7.19165">
        <ele>739.5</ele>
        <time>2020-11-28T13:11:28Z</time>
      </trkpt>
      <trkpt lat="48.54242" lon="7.19164">
        <ele>739.7</ele>
        <time>2020-11-28T13:11:30Z</time>
      </trkpt>
      <trkpt lat="48.54235" lon="7.19165">
        <ele>740.2</ele>
        <time>2020-11-28T13:11:32Z</time>
      </trkpt>
      <trkpt lat="48.54228" lon="7.19166">
        <ele>741</ele>
        <time>2020-11-28T13:11:34Z</time>
      </trkpt>
      <trkpt lat="48.54221" lon="7.19168">
        <ele>741.7</ele>
        <time>2020-11-28T13:11:36Z</time>
      </trkpt>
      <trkpt lat="48.54215" lon="7.1917">
        <ele>742.5</ele>
        <time>2020-11-28T13:11:38Z</time>
      </trkpt>
      <trkpt lat="48.54209" lon="7.19171">
        <ele>743.1</ele>
        <time>2020-11-28T13:11:40Z</time>
      </trkpt>
      <trkpt lat="48.54203" lon="7.19173">
        <ele>743.9</ele>
        <time>2020-11-28T13:11:42Z</time>
      </trkpt>
      <trkpt lat="48.54198" lon="7.19174">
        <ele>744.4</ele>
        <time>2020-11-28T13:11:44Z</time>
      </trkpt>
      <trkpt lat="48.54193" lon="7.19173">
        <ele>745</ele>
        <time>2020-11-28T13:11:46Z</time>
      </trkpt>
      <trkpt lat="48.54187" lon="7.19172">
        <ele>745.8</ele>
        <time>2020-11-28T13:11:48Z</time>
      </trkpt>
      <trkpt lat="48.54181" lon="7.19171">
        <ele>746.5</ele>
        <time>2020-11-28T13:11:50Z</time>
      </trkpt>
      <trkpt lat="48.54175" lon="7.1917">
        <ele>746.8</ele>
        <time>2020-11-28T13:11:52Z</time>
      </trkpt>
      <trkpt lat="48.54169" lon="7.19168">
        <ele>746.7</ele>
        <time>2020-11-28T13:11:54Z</time>
      </trkpt>
      <trkpt lat="48.54162" lon="7.19168">
        <ele>747.2</ele>
        <time>2020-11-28T13:11:56Z</time>
      </trkpt>
      <trkpt lat="48.54156" lon="7.19169">
        <ele>746.8</ele>
        <time>2020-11-28T13:11:58Z</time>
      </trkpt>
      <trkpt lat="48.54149" lon="7.19169">
        <ele>746.2</ele>
        <time>2020-11-28T13:12:00Z</time>
      </trkpt>
      <trkpt lat="48.54141" lon="7.19168">
        <ele>745.6</ele>
        <time>2020-11-28T13:12:02Z</time>
      </trkpt>
      <trkpt lat="48.54133" lon="7.19167">
        <ele>744.1</ele>
        <time>2020-11-28T13:12:04Z</time>
      </trkpt>
      <trkpt lat="48.54125" lon="7.19164">
        <ele>742.9</ele>
        <time>2020-11-28T13:12:06Z</time>
      </trkpt>
      <trkpt lat="48.54116" lon="7.19164">
        <ele>742</ele>
        <time>2020-11-28T13:12:08Z</time>
      </trkpt>
      <trkpt lat="48.54107" lon="7.19165">
        <ele>741.5</ele>
        <time>2020-11-28T13:12:10Z</time>
      </trkpt>
      <trkpt lat="48.54099" lon="7.19164">
        <ele>741</ele>
        <time>2020-11-28T13:12:12Z</time>
      </trkpt>
      <trkpt lat="48.54091" lon="7.19164">
        <ele>760.9</ele>
        <time>2020-11-28T13:12:14Z</time>
      </trkpt>
      <trkpt lat="48.54083" lon="7.19162">
        <ele>756.7</ele>
        <time>2020-11-28T13:12:16Z</time>
      </trkpt>
      <trkpt lat="48.54076" lon="7.19159">
        <ele>757.6</ele>
        <time>2020-11-28T13:12:18Z</time>
      </trkpt>
      <trkpt lat="48.54068" lon="7.19157">
        <ele>755.5</ele>
        <time>2020-11-28T13:12:20Z</time>
      </trkpt>
      <trkpt lat="48.5406" lon="7.19154">
        <ele>753.6</ele>
        <time>2020-11-28T13:12:22Z</time>
      </trkpt>
      <trkpt lat="48.54052" lon="7.19151">
        <ele>752.4</ele>
        <time>2020-11-28T13:12:24Z</time>
      </trkpt>
      <trkpt lat="48.54046" lon="7.19148">
        <ele>750.1</ele>
        <time>2020-11-28T13:12:26Z</time>
      </trkpt>
      <trkpt lat="48.5404" lon="7.19145">
        <ele>748.9</ele>
        <time>2020-11-28T13:12:28Z</time>
      </trkpt>
      <trkpt lat="48.54034" lon="7.19142">
        <ele>747</ele>
        <time>2020-11-28T13:12:30Z</time>
      </trkpt>
      <trkpt lat="48.54027" lon="7.19138">
        <ele>745.6</ele>
        <time>2020-11-28T13:12:32Z</time>
      </trkpt>
      <trkpt lat="48.54021" lon="7.19133">
        <ele>743.3</ele>
        <time>2020-11-28T13:12:34Z</time>
      </trkpt>
      <trkpt lat="48.54013" lon="7.19129">
        <ele>742.4</ele>
        <time>2020-11-28T13:12:36Z</time>
      </trkpt>
      <trkpt lat="48.54004" lon="7.19121">
        <ele>741.3</ele>
        <time>2020-11-28T13:12:38Z</time>
      </trkpt>
      <trkpt lat="48.53997" lon="7.19113">
        <ele>738.9</ele>
        <time>2020-11-28T13:12:40Z</time>
      </trkpt>
      <trkpt lat="48.5399" lon="7.19105">
        <ele>737.5</ele>
        <time>2020-11-28T13:12:42Z</time>
      </trkpt>
      <trkpt lat="48.53983" lon="7.19097">
        <ele>736.7</ele>
        <time>2020-11-28T13:12:44Z</time>
      </trkpt>
      <trkpt lat="48.53974" lon="7.1909">
        <ele>737.3</ele>
        <time>2020-11-28T13:12:46Z</time>
      </trkpt>
      <trkpt lat="48.53967" lon="7.19083">
        <ele>737.5</ele>
        <time>2020-11-28T13:12:48Z</time>
      </trkpt>
      <trkpt lat="48.5396" lon="7.19076">
        <ele>737.9</ele>
        <time>2020-11-28T13:12:50Z</time>
      </trkpt>
      <trkpt lat="48.53953" lon="7.19068">
        <ele>738.3</ele>
        <time>2020-11-28T13:12:52Z</time>
      </trkpt>
      <trkpt lat="48.53946" lon="7.19059">
        <ele>738.3</ele>
        <time>2020-11-28T13:12:54Z</time>
      </trkpt>
      <trkpt lat="48.53939" lon="7.1905">
        <ele>738.1</ele>
        <time>2020-11-28T13:12:56Z</time>
      </trkpt>
      <trkpt lat="48.5393" lon="7.1904">
        <ele>737.6</ele>
        <time>2020-11-28T13:12:58Z</time>
      </trkpt>
      <trkpt lat="48.53923" lon="7.19032">
        <ele>737.5</ele>
        <time>2020-11-28T13:13:00Z</time>
      </trkpt>
      <trkpt lat="48.53916" lon="7.19024">
        <ele>737.2</ele>
        <time>2020-11-28T13:13:02Z</time>
      </trkpt>
      <trkpt lat="48.53909" lon="7.19016">
        <ele>736.4</ele>
        <time>2020-11-28T13:13:04Z</time>
      </trkpt>
      <trkpt lat="48.539" lon="7.19007">
        <ele>737.3</ele>
        <time>2020-11-28T13:13:06Z</time>
      </trkpt>
      <trkpt lat="48.53892" lon="7.19002">
        <ele>737.7</ele>
        <time>2020-11-28T13:13:08Z</time>
      </trkpt>
      <trkpt lat="48.53885" lon="7.18997">
        <ele>737.6</ele>
        <time>2020-11-28T13:13:10Z</time>
      </trkpt>
      <trkpt lat="48.53878" lon="7.1899">
        <ele>738</ele>
        <time>2020-11-28T13:13:12Z</time>
      </trkpt>
      <trkpt lat="48.53872" lon="7.18983">
        <ele>760.7</ele>
        <time>2020-11-28T13:13:14Z</time>
      </trkpt>
      <trkpt lat="48.53866" lon="7.18975">
        <ele>757.2</ele>
        <time>2020-11-28T13:13:16Z</time>
      </trkpt>
      <trkpt lat="48.5386" lon="7.18967">
        <ele>773.1</ele>
        <time>2020-11-28T13:13:18Z</time>
      </trkpt>
      <trkpt lat="48.53849" lon="7.18956">
        <ele>768.8</ele>
        <time>2020-11-28T13:13:21Z</time>
      </trkpt>
      <trkpt lat="48.53838" lon="7.1895">
        <ele>766.9</ele>
        <time>2020-11-28T13:13:23Z</time>
      </trkpt>
      <trkpt lat="48.53829" lon="7.18945">
        <ele>764.1</ele>
        <time>2020-11-28T13:13:25Z</time>
      </trkpt>
      <trkpt lat="48.53822" lon="7.18939">
        <ele>760</ele>
        <time>2020-11-28T13:13:27Z</time>
      </trkpt>
      <trkpt lat="48.53814" lon="7.18933">
        <ele>756.3</ele>
        <time>2020-11-28T13:13:29Z</time>
      </trkpt>
      <trkpt lat="48.53805" lon="7.18929">
        <ele>753</ele>
        <time>2020-11-28T13:13:31Z</time>
      </trkpt>
      <trkpt lat="48.53795" lon="7.18924">
        <ele>749.4</ele>
        <time>2020-11-28T13:13:33Z</time>
      </trkpt>
      <trkpt lat="48.53785" lon="7.18921">
        <ele>747.3</ele>
        <time>2020-11-28T13:13:35Z</time>
      </trkpt>
      <trkpt lat="48.53775" lon="7.18919">
        <ele>745.1</ele>
        <time>2020-11-28T13:13:37Z</time>
      </trkpt>
      <trkpt lat="48.53765" lon="7.18918">
        <ele>743.1</ele>
        <time>2020-11-28T13:13:39Z</time>
      </trkpt>
      <trkpt lat="48.53755" lon="7.18917">
        <ele>742.1</ele>
        <time>2020-11-28T13:13:41Z</time>
      </trkpt>
      <trkpt lat="48.53746" lon="7.18913">
        <ele>740.8</ele>
        <time>2020-11-28T13:13:43Z</time>
      </trkpt>
      <trkpt lat="48.53736" lon="7.1891">
        <ele>739.5</ele>
        <time>2020-11-28T13:13:45Z</time>
      </trkpt>
      <trkpt lat="48.53728" lon="7.18904">
        <ele>737.6</ele>
        <time>2020-11-28T13:13:47Z</time>
      </trkpt>
      <trkpt lat="48.5372" lon="7.18899">
        <ele>736.2</ele>
        <time>2020-11-28T13:13:49Z</time>
      </trkpt>
      <trkpt lat="48.53712" lon="7.18896">
        <ele>735.6</ele>
        <time>2020-11-28T13:13:51Z</time>
      </trkpt>
      <trkpt lat="48.53702" lon="7.18893">
        <ele>735.7</ele>
        <time>2020-11-28T13:13:53Z</time>
      </trkpt>
      <trkpt lat="48.53694" lon="7.1889">
        <ele>734.7</ele>
        <time>2020-11-28T13:13:55Z</time>
      </trkpt>
      <trkpt lat="48.53685" lon="7.18884">
        <ele>733.8</ele>
        <time>2020-11-28T13:13:57Z</time>
      </trkpt>
      <trkpt lat="48.53675" lon="7.18881">
        <ele>733.9</ele>
        <time>2020-11-28T13:13:59Z</time>
      </trkpt>
      <trkpt lat="48.53664" lon="7.18878">
        <ele>734.1</ele>
        <time>2020-11-28T13:14:01Z</time>
      </trkpt>
      <trkpt lat="48.53655" lon="7.18872">
        <ele>733.5</ele>
        <time>2020-11-28T13:14:03Z</time>
      </trkpt>
      <trkpt lat="48.53646" lon="7.18868">
        <ele>733.8</ele>
        <time>2020-11-28T13:14:05Z</time>
      </trkpt>
      <trkpt lat="48.53637" lon="7.18863">
        <ele>733.9</ele>
        <time>2020-11-28T13:14:07Z</time>
      </trkpt>
      <trkpt lat="48.53625" lon="7.18857">
        <ele>734.8</ele>
        <time>2020-11-28T13:14:10Z</time>
      </trkpt>
      <trkpt lat="48.53619" lon="7.18852">
        <ele>735</ele>
        <time>2020-11-28T13:14:12Z</time>
      </trkpt>
      <trkpt lat="48.53613" lon="7.18845">
        <ele>736</ele>
        <time>2020-11-28T13:14:14Z</time>
      </trkpt>
      <trkpt lat="48.53608" lon="7.18837">
        <ele>736.1</ele>
        <time>2020-11-28T13:14:16Z</time>
      </trkpt>
      <trkpt lat="48.53603" lon="7.18827">
        <ele>736.4</ele>
        <time>2020-11-28T13:14:18Z</time>
      </trkpt>
      <trkpt lat="48.53598" lon="7.18815">
        <ele>736.1</ele>
        <time>2020-11-28T13:14:20Z</time>
      </trkpt>
      <trkpt lat="48.53593" lon="7.18804">
        <ele>736.1</ele>
        <time>2020-11-28T13:14:22Z</time>
      </trkpt>
      <trkpt lat="48.53588" lon="7.18791">
        <ele>736</ele>
        <time>2020-11-28T13:14:24Z</time>
      </trkpt>
      <trkpt lat="48.53583" lon="7.18779">
        <ele>735.6</ele>
        <time>2020-11-28T13:14:26Z</time>
      </trkpt>
      <trkpt lat="48.53581" lon="7.18767">
        <ele>735.6</ele>
        <time>2020-11-28T13:14:28Z</time>
      </trkpt>
      <trkpt lat="48.53578" lon="7.18755">
        <ele>735.6</ele>
        <time>2020-11-28T13:14:30Z</time>
      </trkpt>
      <trkpt lat="48.53575" lon="7.18743">
        <ele>735.4</ele>
        <time>2020-11-28T13:14:32Z</time>
      </trkpt>
      <trkpt lat="48.53572" lon="7.18731">
        <ele>734.4</ele>
        <time>2020-11-28T13:14:34Z</time>
      </trkpt>
      <trkpt lat="48.5357" lon="7.18719">
        <ele>733.8</ele>
        <time>2020-11-28T13:14:36Z</time>
      </trkpt>
      <trkpt lat="48.53567" lon="7.18708">
        <ele>733.8</ele>
        <time>2020-11-28T13:14:38Z</time>
      </trkpt>
      <trkpt lat="48.53564" lon="7.18698">
        <ele>733.5</ele>
        <time>2020-11-28T13:14:40Z</time>
      </trkpt>
      <trkpt lat="48.53562" lon="7.18686">
        <ele>732.9</ele>
        <time>2020-11-28T13:14:42Z</time>
      </trkpt>
      <trkpt lat="48.53559" lon="7.18674">
        <ele>732.7</ele>
        <time>2020-11-28T13:14:44Z</time>
      </trkpt>
      <trkpt lat="48.53556" lon="7.18661">
        <ele>732.1</ele>
        <time>2020-11-28T13:14:46Z</time>
      </trkpt>
      <trkpt lat="48.53553" lon="7.18649">
        <ele>731.6</ele>
        <time>2020-11-28T13:14:48Z</time>
      </trkpt>
      <trkpt lat="48.53548" lon="7.18634">
        <ele>730.9</ele>
        <time>2020-11-28T13:14:50Z</time>
      </trkpt>
      <trkpt lat="48.53544" lon="7.18619">
        <ele>730.6</ele>
        <time>2020-11-28T13:14:52Z</time>
      </trkpt>
      <trkpt lat="48.53541" lon="7.18605">
        <ele>730.6</ele>
        <time>2020-11-28T13:14:54Z</time>
      </trkpt>
      <trkpt lat="48.53538" lon="7.18592">
        <ele>730.1</ele>
        <time>2020-11-28T13:14:56Z</time>
      </trkpt>
      <trkpt lat="48.53535" lon="7.18579">
        <ele>730.1</ele>
        <time>2020-11-28T13:14:58Z</time>
      </trkpt>
      <trkpt lat="48.53532" lon="7.18569">
        <ele>729.6</ele>
        <time>2020-11-28T13:15:00Z</time>
      </trkpt>
      <trkpt lat="48.53529" lon="7.18556">
        <ele>729.4</ele>
        <time>2020-11-28T13:15:02Z</time>
      </trkpt>
      <trkpt lat="48.53524" lon="7.18543">
        <ele>759.3</ele>
        <time>2020-11-28T13:15:04Z</time>
      </trkpt>
      <trkpt lat="48.53521" lon="7.18533">
        <ele>760.2</ele>
        <time>2020-11-28T13:15:06Z</time>
      </trkpt>
      <trkpt lat="48.53519" lon="7.18523">
        <ele>765.9</ele>
        <time>2020-11-28T13:15:08Z</time>
      </trkpt>
      <trkpt lat="48.53516" lon="7.18513">
        <ele>767.7</ele>
        <time>2020-11-28T13:15:10Z</time>
      </trkpt>
      <trkpt lat="48.53509" lon="7.18496">
        <ele>766.1</ele>
        <time>2020-11-28T13:15:12Z</time>
      </trkpt>
      <trkpt lat="48.53503" lon="7.18479">
        <ele>762.2</ele>
        <time>2020-11-28T13:15:14Z</time>
      </trkpt>
      <trkpt lat="48.53499" lon="7.18465">
        <ele>756.3</ele>
        <time>2020-11-28T13:15:16Z</time>
      </trkpt>
      <trkpt lat="48.53491" lon="7.18448">
        <ele>749.3</ele>
        <time>2020-11-28T13:15:19Z</time>
      </trkpt>
      <trkpt lat="48.53486" lon="7.18435">
        <ele>746</ele>
        <time>2020-11-28T13:15:21Z</time>
      </trkpt>
      <trkpt lat="48.5348" lon="7.18413">
        <ele>742.1</ele>
        <time>2020-11-28T13:15:24Z</time>
      </trkpt>
      <trkpt lat="48.53474" lon="7.18401">
        <ele>740.4</ele>
        <time>2020-11-28T13:15:26Z</time>
      </trkpt>
      <trkpt lat="48.53467" lon="7.18389">
        <ele>740.3</ele>
        <time>2020-11-28T13:15:28Z</time>
      </trkpt>
      <trkpt lat="48.5346" lon="7.18379">
        <ele>740</ele>
        <time>2020-11-28T13:15:30Z</time>
      </trkpt>
      <trkpt lat="48.53453" lon="7.18371">
        <ele>740</ele>
        <time>2020-11-28T13:15:32Z</time>
      </trkpt>
      <trkpt lat="48.53446" lon="7.18359">
        <ele>738.3</ele>
        <time>2020-11-28T13:15:34Z</time>
      </trkpt>
      <trkpt lat="48.53439" lon="7.18351">
        <ele>738</ele>
        <time>2020-11-28T13:15:36Z</time>
      </trkpt>
      <trkpt lat="48.53431" lon="7.18344">
        <ele>737.2</ele>
        <time>2020-11-28T13:15:38Z</time>
      </trkpt>
      <trkpt lat="48.53423" lon="7.18336">
        <ele>735.8</ele>
        <time>2020-11-28T13:15:40Z</time>
      </trkpt>
      <trkpt lat="48.53417" lon="7.18327">
        <ele>735</ele>
        <time>2020-11-28T13:15:42Z</time>
      </trkpt>
      <trkpt lat="48.5341" lon="7.18318">
        <ele>734.2</ele>
        <time>2020-11-28T13:15:44Z</time>
      </trkpt>
      <trkpt lat="48.53404" lon="7.1831">
        <ele>733.8</ele>
        <time>2020-11-28T13:15:46Z</time>
      </trkpt>
      <trkpt lat="48.53397" lon="7.183">
        <ele>733.7</ele>
        <time>2020-11-28T13:15:48Z</time>
      </trkpt>
      <trkpt lat="48.5339" lon="7.1829">
        <ele>733</ele>
        <time>2020-11-28T13:15:50Z</time>
      </trkpt>
      <trkpt lat="48.53383" lon="7.1828">
        <ele>732.4</ele>
        <time>2020-11-28T13:15:52Z</time>
      </trkpt>
      <trkpt lat="48.53376" lon="7.18271">
        <ele>733</ele>
        <time>2020-11-28T13:15:54Z</time>
      </trkpt>
      <trkpt lat="48.5337" lon="7.18263">
        <ele>733.1</ele>
        <time>2020-11-28T13:15:56Z</time>
      </trkpt>
      <trkpt lat="48.53364" lon="7.18254">
        <ele>733.1</ele>
        <time>2020-11-28T13:15:58Z</time>
      </trkpt>
      <trkpt lat="48.53359" lon="7.18244">
        <ele>733</ele>
        <time>2020-11-28T13:16:00Z</time>
      </trkpt>
      <trkpt lat="48.53354" lon="7.18234">
        <ele>733.1</ele>
        <time>2020-11-28T13:16:02Z</time>
      </trkpt>
      <trkpt lat="48.53351" lon="7.18222">
        <ele>733.3</ele>
        <time>2020-11-28T13:16:04Z</time>
      </trkpt>
      <trkpt lat="48.53348" lon="7.18211">
        <ele>733.3</ele>
        <time>2020-11-28T13:16:06Z</time>
      </trkpt>
      <trkpt lat="48.53344" lon="7.182">
        <ele>733.1</ele>
        <time>2020-11-28T13:16:08Z</time>
      </trkpt>
      <trkpt lat="48.5334" lon="7.18189">
        <ele>733.1</ele>
        <time>2020-11-28T13:16:10Z</time>
      </trkpt>
      <trkpt lat="48.53334" lon="7.18179">
        <ele>732.9</ele>
        <time>2020-11-28T13:16:12Z</time>
      </trkpt>
      <trkpt lat="48.53327" lon="7.18169">
        <ele>733.1</ele>
        <time>2020-11-28T13:16:14Z</time>
      </trkpt>
      <trkpt lat="48.53322" lon="7.18161">
        <ele>733</ele>
        <time>2020-11-28T13:16:16Z</time>
      </trkpt>
      <trkpt lat="48.53317" lon="7.1815">
        <ele>732.9</ele>
        <time>2020-11-28T13:16:18Z</time>
      </trkpt>
      <trkpt lat="48.53314" lon="7.18137">
        <ele>732.7</ele>
        <time>2020-11-28T13:16:20Z</time>
      </trkpt>
      <trkpt lat="48.53312" lon="7.18124">
        <ele>733</ele>
        <time>2020-11-28T13:16:22Z</time>
      </trkpt>
      <trkpt lat="48.53309" lon="7.18112">
        <ele>733</ele>
        <time>2020-11-28T13:16:24Z</time>
      </trkpt>
      <trkpt lat="48.53306" lon="7.181">
        <ele>755.9</ele>
        <time>2020-11-28T13:16:26Z</time>
      </trkpt>
      <trkpt lat="48.53304" lon="7.18088">
        <ele>758.1</ele>
        <time>2020-11-28T13:16:28Z</time>
      </trkpt>
      <trkpt lat="48.53303" lon="7.18075">
        <ele>757.4</ele>
        <time>2020-11-28T13:16:30Z</time>
      </trkpt>
      <trkpt lat="48.53301" lon="7.18061">
        <ele>771.5</ele>
        <time>2020-11-28T13:16:32Z</time>
      </trkpt>
      <trkpt lat="48.53298" lon="7.18043">
        <ele>766.1</ele>
        <time>2020-11-28T13:16:34Z</time>
      </trkpt>
      <trkpt lat="48.53294" lon="7.18027">
        <ele>763.7</ele>
        <time>2020-11-28T13:16:36Z</time>
      </trkpt>
      <trkpt lat="48.53291" lon="7.18011">
        <ele>759.3</ele>
        <time>2020-11-28T13:16:38Z</time>
      </trkpt>
      <trkpt lat="48.53289" lon="7.17996">
        <ele>756.2</ele>
        <time>2020-11-28T13:16:40Z</time>
      </trkpt>
      <trkpt lat="48.53285" lon="7.17984">
        <ele>752.4</ele>
        <time>2020-11-28T13:16:42Z</time>
      </trkpt>
      <trkpt lat="48.5328" lon="7.17971">
        <ele>749.2</ele>
        <time>2020-11-28T13:16:44Z</time>
      </trkpt>
      <trkpt lat="48.53275" lon="7.17959">
        <ele>746.9</ele>
        <time>2020-11-28T13:16:46Z</time>
      </trkpt>
      <trkpt lat="48.53272" lon="7.17948">
        <ele>744.9</ele>
        <time>2020-11-28T13:16:48Z</time>
      </trkpt>
      <trkpt lat="48.5327" lon="7.17941">
        <ele>740.5</ele>
        <time>2020-11-28T13:16:54Z</time>
      </trkpt>
      <trkpt lat="48.53269" lon="7.17935">
        <ele>736.1</ele>
        <time>2020-11-28T13:17:11Z</time>
      </trkpt>
      <trkpt lat="48.53267" lon="7.17925">
        <ele>735.9</ele>
        <time>2020-11-28T13:17:14Z</time>
      </trkpt>
      <trkpt lat="48.53265" lon="7.17916">
        <ele>735.6</ele>
        <time>2020-11-28T13:17:16Z</time>
      </trkpt>
      <trkpt lat="48.53262" lon="7.17906">
        <ele>736</ele>
        <time>2020-11-28T13:17:18Z</time>
      </trkpt>
      <trkpt lat="48.53258" lon="7.17896">
        <ele>736.4</ele>
        <time>2020-11-28T13:17:20Z</time>
      </trkpt>
      <trkpt lat="48.53254" lon="7.17885">
        <ele>736.5</ele>
        <time>2020-11-28T13:17:22Z</time>
      </trkpt>
      <trkpt lat="48.5325" lon="7.17876">
        <ele>736</ele>
        <time>2020-11-28T13:17:24Z</time>
      </trkpt>
      <trkpt lat="48.53246" lon="7.17865">
        <ele>736</ele>
        <time>2020-11-28T13:17:26Z</time>
      </trkpt>
      <trkpt lat="48.53241" lon="7.17854">
        <ele>736.8</ele>
        <time>2020-11-28T13:17:28Z</time>
      </trkpt>
      <trkpt lat="48.53236" lon="7.17843">
        <ele>737.7</ele>
        <time>2020-11-28T13:17:30Z</time>
      </trkpt>
      <trkpt lat="48.53231" lon="7.17831">
        <ele>758.6</ele>
        <time>2020-11-28T13:17:32Z</time>
      </trkpt>
      <trkpt lat="48.53226" lon="7.17819">
        <ele>756.4</ele>
        <time>2020-11-28T13:17:34Z</time>
      </trkpt>
      <trkpt lat="48.53224" lon="7.17807">
        <ele>758.9</ele>
        <time>2020-11-28T13:17:36Z</time>
      </trkpt>
      <trkpt lat="48.53221" lon="7.17795">
        <ele>768.7</ele>
        <time>2020-11-28T13:17:38Z</time>
      </trkpt>
      <trkpt lat="48.53218" lon="7.17784">
        <ele>765.4</ele>
        <time>2020-11-28T13:17:40Z</time>
      </trkpt>
      <trkpt lat="48.53214" lon="7.17773">
        <ele>760.5</ele>
        <time>2020-11-28T13:17:42Z</time>
      </trkpt>
      <trkpt lat="48.53209" lon="7.17763">
        <ele>756.4</ele>
        <time>2020-11-28T13:17:44Z</time>
      </trkpt>
      <trkpt lat="48.53205" lon="7.17753">
        <ele>752.1</ele>
        <time>2020-11-28T13:17:46Z</time>
      </trkpt>
      <trkpt lat="48.532" lon="7.17743">
        <ele>748.8</ele>
        <time>2020-11-28T13:17:48Z</time>
      </trkpt>
      <trkpt lat="48.53196" lon="7.17733">
        <ele>746.4</ele>
        <time>2020-11-28T13:17:50Z</time>
      </trkpt>
      <trkpt lat="48.53193" lon="7.17722">
        <ele>744.1</ele>
        <time>2020-11-28T13:17:52Z</time>
      </trkpt>
      <trkpt lat="48.53191" lon="7.17712">
        <ele>742.6</ele>
        <time>2020-11-28T13:17:54Z</time>
      </trkpt>
      <trkpt lat="48.53188" lon="7.177">
        <ele>740.5</ele>
        <time>2020-11-28T13:17:56Z</time>
      </trkpt>
      <trkpt lat="48.53186" lon="7.17687">
        <ele>738.3</ele>
        <time>2020-11-28T13:17:58Z</time>
      </trkpt>
      <trkpt lat="48.53183" lon="7.17673">
        <ele>736.8</ele>
        <time>2020-11-28T13:18:00Z</time>
      </trkpt>
      <trkpt lat="48.53178" lon="7.17659">
        <ele>736.6</ele>
        <time>2020-11-28T13:18:02Z</time>
      </trkpt>
      <trkpt lat="48.53173" lon="7.17647">
        <ele>736.4</ele>
        <time>2020-11-28T13:18:04Z</time>
      </trkpt>
      <trkpt lat="48.53167" lon="7.17636">
        <ele>737.2</ele>
        <time>2020-11-28T13:18:06Z</time>
      </trkpt>
      <trkpt lat="48.53163" lon="7.17624">
        <ele>737.4</ele>
        <time>2020-11-28T13:18:08Z</time>
      </trkpt>
      <trkpt lat="48.53158" lon="7.17614">
        <ele>737.9</ele>
        <time>2020-11-28T13:18:10Z</time>
      </trkpt>
      <trkpt lat="48.53154" lon="7.17604">
        <ele>738.7</ele>
        <time>2020-11-28T13:18:12Z</time>
      </trkpt>
      <trkpt lat="48.53151" lon="7.17592">
        <ele>738.6</ele>
        <time>2020-11-28T13:18:14Z</time>
      </trkpt>
      <trkpt lat="48.53147" lon="7.1758">
        <ele>738.1</ele>
        <time>2020-11-28T13:18:16Z</time>
      </trkpt>
      <trkpt lat="48.53143" lon="7.17567">
        <ele>737.5</ele>
        <time>2020-11-28T13:18:18Z</time>
      </trkpt>
      <trkpt lat="48.53139" lon="7.17552">
        <ele>735.9</ele>
        <time>2020-11-28T13:18:20Z</time>
      </trkpt>
      <trkpt lat="48.53135" lon="7.17538">
        <ele>735</ele>
        <time>2020-11-28T13:18:22Z</time>
      </trkpt>
      <trkpt lat="48.53131" lon="7.17525">
        <ele>734.9</ele>
        <time>2020-11-28T13:18:24Z</time>
      </trkpt>
      <trkpt lat="48.53128" lon="7.17512">
        <ele>734.4</ele>
        <time>2020-11-28T13:18:26Z</time>
      </trkpt>
      <trkpt lat="48.53125" lon="7.175">
        <ele>733.6</ele>
        <time>2020-11-28T13:18:28Z</time>
      </trkpt>
      <trkpt lat="48.53122" lon="7.1749">
        <ele>732.9</ele>
        <time>2020-11-28T13:18:30Z</time>
      </trkpt>
      <trkpt lat="48.5312" lon="7.1748">
        <ele>732.5</ele>
        <time>2020-11-28T13:18:32Z</time>
      </trkpt>
      <trkpt lat="48.53118" lon="7.17471">
        <ele>732.8</ele>
        <time>2020-11-28T13:18:34Z</time>
      </trkpt>
      <trkpt lat="48.53116" lon="7.17463">
        <ele>731.7</ele>
        <time>2020-11-28T13:18:36Z</time>
      </trkpt>
      <trkpt lat="48.53112" lon="7.17451">
        <ele>731.3</ele>
        <time>2020-11-28T13:18:39Z</time>
      </trkpt>
      <trkpt lat="48.53111" lon="7.17442">
        <ele>731</ele>
        <time>2020-11-28T13:18:41Z</time>
      </trkpt>
      <trkpt lat="48.53109" lon="7.17434">
        <ele>731.5</ele>
        <time>2020-11-28T13:18:43Z</time>
      </trkpt>
      <trkpt lat="48.53108" lon="7.17426">
        <ele>731.8</ele>
        <time>2020-11-28T13:18:45Z</time>
      </trkpt>
      <trkpt lat="48.53106" lon="7.17419">
        <ele>731.5</ele>
        <time>2020-11-28T13:18:47Z</time>
      </trkpt>
      <trkpt lat="48.53105" lon="7.17412">
        <ele>732.3</ele>
        <time>2020-11-28T13:18:49Z</time>
      </trkpt>
      <trkpt lat="48.53103" lon="7.17405">
        <ele>732.4</ele>
        <time>2020-11-28T13:18:51Z</time>
      </trkpt>
      <trkpt lat="48.53102" lon="7.17399">
        <ele>733</ele>
        <time>2020-11-28T13:18:53Z</time>
      </trkpt>
      <trkpt lat="48.531" lon="7.17389">
        <ele>733.4</ele>
        <time>2020-11-28T13:18:56Z</time>
      </trkpt>
      <trkpt lat="48.53098" lon="7.1738">
        <ele>733.2</ele>
        <time>2020-11-28T13:18:59Z</time>
      </trkpt>
      <trkpt lat="48.53098" lon="7.17372">
        <ele>733.7</ele>
        <time>2020-11-28T13:19:02Z</time>
      </trkpt>
      <trkpt lat="48.53098" lon="7.17365">
        <ele>735.4</ele>
        <time>2020-11-28T13:19:05Z</time>
      </trkpt>
      <trkpt lat="48.53097" lon="7.17357">
        <ele>736.5</ele>
        <time>2020-11-28T13:19:08Z</time>
      </trkpt>
      <trkpt lat="48.53096" lon="7.17348">
        <ele>737</ele>
        <time>2020-11-28T13:19:11Z</time>
      </trkpt>
      <trkpt lat="48.53094" lon="7.17339">
        <ele>738.3</ele>
        <time>2020-11-28T13:19:14Z</time>
      </trkpt>
      <trkpt lat="48.53091" lon="7.1733">
        <ele>739.1</ele>
        <time>2020-11-28T13:19:17Z</time>
      </trkpt>
      <trkpt lat="48.5309" lon="7.17323">
        <ele>738.7</ele>
        <time>2020-11-28T13:19:20Z</time>
      </trkpt>
      <trkpt lat="48.53088" lon="7.17315">
        <ele>741.3</ele>
        <time>2020-11-28T13:19:23Z</time>
      </trkpt>
      <trkpt lat="48.53085" lon="7.17306">
        <ele>743.3</ele>
        <time>2020-11-28T13:19:26Z</time>
      </trkpt>
      <trkpt lat="48.53084" lon="7.17298">
        <ele>744.8</ele>
        <time>2020-11-28T13:19:29Z</time>
      </trkpt>
      <trkpt lat="48.53083" lon="7.17291">
        <ele>746</ele>
        <time>2020-11-28T13:19:32Z</time>
      </trkpt>
      <trkpt lat="48.53082" lon="7.17283">
        <ele>746.8</ele>
        <time>2020-11-28T13:19:35Z</time>
      </trkpt>
      <trkpt lat="48.5308" lon="7.17275">
        <ele>746.6</ele>
        <time>2020-11-28T13:19:38Z</time>
      </trkpt>
      <trkpt lat="48.53078" lon="7.17268">
        <ele>746.4</ele>
        <time>2020-11-28T13:19:41Z</time>
      </trkpt>
      <trkpt lat="48.53076" lon="7.17262">
        <ele>746.9</ele>
        <time>2020-11-28T13:19:44Z</time>
      </trkpt>
      <trkpt lat="48.53076" lon="7.17254">
        <ele>749.2</ele>
        <time>2020-11-28T13:19:48Z</time>
      </trkpt>
      <trkpt lat="48.53072" lon="7.17249">
        <ele>751.2</ele>
        <time>2020-11-28T13:19:51Z</time>
      </trkpt>
      <trkpt lat="48.53069" lon="7.17242">
        <ele>752</ele>
        <time>2020-11-28T13:19:54Z</time>
      </trkpt>
      <trkpt lat="48.53067" lon="7.17236">
        <ele>751.9</ele>
        <time>2020-11-28T13:19:56Z</time>
      </trkpt>
      <trkpt lat="48.53064" lon="7.17228">
        <ele>752.5</ele>
        <time>2020-11-28T13:19:59Z</time>
      </trkpt>
      <trkpt lat="48.5306" lon="7.17221">
        <ele>753.5</ele>
        <time>2020-11-28T13:20:02Z</time>
      </trkpt>
      <trkpt lat="48.53057" lon="7.17214">
        <ele>753.9</ele>
        <time>2020-11-28T13:20:06Z</time>
      </trkpt>
      <trkpt lat="48.53055" lon="7.17206">
        <ele>754.1</ele>
        <time>2020-11-28T13:20:09Z</time>
      </trkpt>
      <trkpt lat="48.53052" lon="7.17196">
        <ele>753.6</ele>
        <time>2020-11-28T13:20:12Z</time>
      </trkpt>
      <trkpt lat="48.53049" lon="7.17187">
        <ele>754</ele>
        <time>2020-11-28T13:20:15Z</time>
      </trkpt>
      <trkpt lat="48.53047" lon="7.17181">
        <ele>754.1</ele>
        <time>2020-11-28T13:20:18Z</time>
      </trkpt>
      <trkpt lat="48.53043" lon="7.17174">
        <ele>754.8</ele>
        <time>2020-11-28T13:20:21Z</time>
      </trkpt>
      <trkpt lat="48.53042" lon="7.17165">
        <ele>755.1</ele>
        <time>2020-11-28T13:20:24Z</time>
      </trkpt>
      <trkpt lat="48.53042" lon="7.17158">
        <ele>755.6</ele>
        <time>2020-11-28T13:20:27Z</time>
      </trkpt>
      <trkpt lat="48.53039" lon="7.17151">
        <ele>755.6</ele>
        <time>2020-11-28T13:20:30Z</time>
      </trkpt>
      <trkpt lat="48.53035" lon="7.17144">
        <ele>756.2</ele>
        <time>2020-11-28T13:20:33Z</time>
      </trkpt>
      <trkpt lat="48.53031" lon="7.17138">
        <ele>757.1</ele>
        <time>2020-11-28T13:20:36Z</time>
      </trkpt>
      <trkpt lat="48.53028" lon="7.17132">
        <ele>758.4</ele>
        <time>2020-11-28T13:20:39Z</time>
      </trkpt>
      <trkpt lat="48.53026" lon="7.17125">
        <ele>759</ele>
        <time>2020-11-28T13:20:42Z</time>
      </trkpt>
      <trkpt lat="48.53024" lon="7.17119">
        <ele>759.6</ele>
        <time>2020-11-28T13:20:45Z</time>
      </trkpt>
      <trkpt lat="48.53021" lon="7.17112">
        <ele>760.3</ele>
        <time>2020-11-28T13:20:48Z</time>
      </trkpt>
      <trkpt lat="48.53017" lon="7.17105">
        <ele>760.7</ele>
        <time>2020-11-28T13:20:51Z</time>
      </trkpt>
      <trkpt lat="48.53014" lon="7.17099">
        <ele>760.8</ele>
        <time>2020-11-28T13:20:54Z</time>
      </trkpt>
      <trkpt lat="48.53011" lon="7.17091">
        <ele>761.2</ele>
        <time>2020-11-28T13:20:57Z</time>
      </trkpt>
      <trkpt lat="48.53007" lon="7.17083">
        <ele>761</ele>
        <time>2020-11-28T13:21:00Z</time>
      </trkpt>
      <trkpt lat="48.53003" lon="7.17076">
        <ele>759.8</ele>
        <time>2020-11-28T13:21:03Z</time>
      </trkpt>
      <trkpt lat="48.52999" lon="7.17069">
        <ele>760</ele>
        <time>2020-11-28T13:21:06Z</time>
      </trkpt>
      <trkpt lat="48.52998" lon="7.17061">
        <ele>760.6</ele>
        <time>2020-11-28T13:21:09Z</time>
      </trkpt>
      <trkpt lat="48.52996" lon="7.17055">
        <ele>761.7</ele>
        <time>2020-11-28T13:21:12Z</time>
      </trkpt>
      <trkpt lat="48.52994" lon="7.17049">
        <ele>762.3</ele>
        <time>2020-11-28T13:21:15Z</time>
      </trkpt>
      <trkpt lat="48.52992" lon="7.17043">
        <ele>762.9</ele>
        <time>2020-11-28T13:21:18Z</time>
      </trkpt>
      <trkpt lat="48.52988" lon="7.17037">
        <ele>763.5</ele>
        <time>2020-11-28T13:21:21Z</time>
      </trkpt>
      <trkpt lat="48.52985" lon="7.17031">
        <ele>764.3</ele>
        <time>2020-11-28T13:21:24Z</time>
      </trkpt>
      <trkpt lat="48.5298" lon="7.17027">
        <ele>764.8</ele>
        <time>2020-11-28T13:21:27Z</time>
      </trkpt>
      <trkpt lat="48.52976" lon="7.17023">
        <ele>765</ele>
        <time>2020-11-28T13:21:30Z</time>
      </trkpt>
      <trkpt lat="48.5297" lon="7.17018">
        <ele>766.1</ele>
        <time>2020-11-28T13:21:33Z</time>
      </trkpt>
      <trkpt lat="48.52965" lon="7.17014">
        <ele>766.1</ele>
        <time>2020-11-28T13:21:36Z</time>
      </trkpt>
      <trkpt lat="48.52961" lon="7.17008">
        <ele>765.7</ele>
        <time>2020-11-28T13:21:39Z</time>
      </trkpt>
      <trkpt lat="48.52956" lon="7.17004">
        <ele>765.2</ele>
        <time>2020-11-28T13:21:42Z</time>
      </trkpt>
      <trkpt lat="48.52952" lon="7.16999">
        <ele>765.2</ele>
        <time>2020-11-28T13:21:45Z</time>
      </trkpt>
      <trkpt lat="48.52947" lon="7.16996">
        <ele>765.3</ele>
        <time>2020-11-28T13:21:48Z</time>
      </trkpt>
      <trkpt lat="48.52944" lon="7.1699">
        <ele>765</ele>
        <time>2020-11-28T13:21:51Z</time>
      </trkpt>
      <trkpt lat="48.52939" lon="7.16985">
        <ele>765.2</ele>
        <time>2020-11-28T13:21:54Z</time>
      </trkpt>
      <trkpt lat="48.52933" lon="7.16981">
        <ele>765.3</ele>
        <time>2020-11-28T13:21:57Z</time>
      </trkpt>
      <trkpt lat="48.52929" lon="7.16977">
        <ele>765.6</ele>
        <time>2020-11-28T13:22:00Z</time>
      </trkpt>
      <trkpt lat="48.52923" lon="7.16972">
        <ele>766.2</ele>
        <time>2020-11-28T13:22:03Z</time>
      </trkpt>
      <trkpt lat="48.52919" lon="7.1697">
        <ele>767</ele>
        <time>2020-11-28T13:22:06Z</time>
      </trkpt>
      <trkpt lat="48.52914" lon="7.16966">
        <ele>767.8</ele>
        <time>2020-11-28T13:22:10Z</time>
      </trkpt>
      <trkpt lat="48.52909" lon="7.16963">
        <ele>768.3</ele>
        <time>2020-11-28T13:22:13Z</time>
      </trkpt>
      <trkpt lat="48.52903" lon="7.16959">
        <ele>768.8</ele>
        <time>2020-11-28T13:22:16Z</time>
      </trkpt>
      <trkpt lat="48.52898" lon="7.16954">
        <ele>769.8</ele>
        <time>2020-11-28T13:22:19Z</time>
      </trkpt>
      <trkpt lat="48.52893" lon="7.16949">
        <ele>770.5</ele>
        <time>2020-11-28T13:22:22Z</time>
      </trkpt>
      <trkpt lat="48.52888" lon="7.16945">
        <ele>770.3</ele>
        <time>2020-11-28T13:22:25Z</time>
      </trkpt>
      <trkpt lat="48.52883" lon="7.1694">
        <ele>770.7</ele>
        <time>2020-11-28T13:22:28Z</time>
      </trkpt>
      <trkpt lat="48.52879" lon="7.16936">
        <ele>770.3</ele>
        <time>2020-11-28T13:22:31Z</time>
      </trkpt>
      <trkpt lat="48.52875" lon="7.16932">
        <ele>770.4</ele>
        <time>2020-11-28T13:22:34Z</time>
      </trkpt>
      <trkpt lat="48.5287" lon="7.16928">
        <ele>770.5</ele>
        <time>2020-11-28T13:22:37Z</time>
      </trkpt>
      <trkpt lat="48.52865" lon="7.16925">
        <ele>770.8</ele>
        <time>2020-11-28T13:22:40Z</time>
      </trkpt>
      <trkpt lat="48.5286" lon="7.16921">
        <ele>769.4</ele>
        <time>2020-11-28T13:22:44Z</time>
      </trkpt>
      <trkpt lat="48.52855" lon="7.16917">
        <ele>769.3</ele>
        <time>2020-11-28T13:22:47Z</time>
      </trkpt>
      <trkpt lat="48.5285" lon="7.16914">
        <ele>769.4</ele>
        <time>2020-11-28T13:22:50Z</time>
      </trkpt>
      <trkpt lat="48.52846" lon="7.16913">
        <ele>770.5</ele>
        <time>2020-11-28T13:22:53Z</time>
      </trkpt>
      <trkpt lat="48.5284" lon="7.1691">
        <ele>771.6</ele>
        <time>2020-11-28T13:22:56Z</time>
      </trkpt>
      <trkpt lat="48.52836" lon="7.16909">
        <ele>772.5</ele>
        <time>2020-11-28T13:22:59Z</time>
      </trkpt>
      <trkpt lat="48.52831" lon="7.16906">
        <ele>773.3</ele>
        <time>2020-11-28T13:23:02Z</time>
      </trkpt>
      <trkpt lat="48.52826" lon="7.16902">
        <ele>774.4</ele>
        <time>2020-11-28T13:23:05Z</time>
      </trkpt>
      <trkpt lat="48.52821" lon="7.16898">
        <ele>776</ele>
        <time>2020-11-28T13:23:08Z</time>
      </trkpt>
      <trkpt lat="48.52816" lon="7.16895">
        <ele>777.1</ele>
        <time>2020-11-28T13:23:11Z</time>
      </trkpt>
      <trkpt lat="48.52811" lon="7.16891">
        <ele>778.2</ele>
        <time>2020-11-28T13:23:15Z</time>
      </trkpt>
      <trkpt lat="48.52807" lon="7.16886">
        <ele>777.4</ele>
        <time>2020-11-28T13:23:19Z</time>
      </trkpt>
      <trkpt lat="48.52803" lon="7.16882">
        <ele>776.9</ele>
        <time>2020-11-28T13:23:22Z</time>
      </trkpt>
      <trkpt lat="48.52797" lon="7.16878">
        <ele>776.2</ele>
        <time>2020-11-28T13:23:25Z</time>
      </trkpt>
      <trkpt lat="48.52792" lon="7.16874">
        <ele>777</ele>
        <time>2020-11-28T13:23:28Z</time>
      </trkpt>
      <trkpt lat="48.52788" lon="7.1687">
        <ele>777.7</ele>
        <time>2020-11-28T13:23:30Z</time>
      </trkpt>
      <trkpt lat="48.52782" lon="7.16866">
        <ele>778.6</ele>
        <time>2020-11-28T13:23:33Z</time>
      </trkpt>
      <trkpt lat="48.52777" lon="7.16864">
        <ele>780.3</ele>
        <time>2020-11-28T13:23:36Z</time>
      </trkpt>
      <trkpt lat="48.52772" lon="7.16862">
        <ele>781</ele>
        <time>2020-11-28T13:23:39Z</time>
      </trkpt>
      <trkpt lat="48.52768" lon="7.16858">
        <ele>781.1</ele>
        <time>2020-11-28T13:23:42Z</time>
      </trkpt>
      <trkpt lat="48.52763" lon="7.16854">
        <ele>781</ele>
        <time>2020-11-28T13:23:45Z</time>
      </trkpt>
      <trkpt lat="48.52758" lon="7.16849">
        <ele>781.9</ele>
        <time>2020-11-28T13:23:48Z</time>
      </trkpt>
      <trkpt lat="48.52754" lon="7.16845">
        <ele>783.3</ele>
        <time>2020-11-28T13:23:51Z</time>
      </trkpt>
      <trkpt lat="48.5275" lon="7.16846">
        <ele>783.5</ele>
        <time>2020-11-28T13:24:02Z</time>
      </trkpt>
      <trkpt lat="48.52754" lon="7.16847">
        <ele>782.2</ele>
        <time>2020-11-28T13:24:12Z</time>
      </trkpt>
      <trkpt lat="48.52758" lon="7.16843">
        <ele>782.4</ele>
        <time>2020-11-28T13:24:15Z</time>
      </trkpt>
      <trkpt lat="48.52763" lon="7.16838">
        <ele>783.1</ele>
        <time>2020-11-28T13:24:18Z</time>
      </trkpt>
      <trkpt lat="48.52767" lon="7.16831">
        <ele>784</ele>
        <time>2020-11-28T13:24:21Z</time>
      </trkpt>
      <trkpt lat="48.52769" lon="7.16824">
        <ele>784.7</ele>
        <time>2020-11-28T13:24:24Z</time>
      </trkpt>
      <trkpt lat="48.52769" lon="7.16815">
        <ele>785.3</ele>
        <time>2020-11-28T13:24:27Z</time>
      </trkpt>
      <trkpt lat="48.52768" lon="7.16806">
        <ele>785.3</ele>
        <time>2020-11-28T13:24:30Z</time>
      </trkpt>
      <trkpt lat="48.52767" lon="7.16796">
        <ele>785.5</ele>
        <time>2020-11-28T13:24:33Z</time>
      </trkpt>
      <trkpt lat="48.52765" lon="7.16788">
        <ele>785.5</ele>
        <time>2020-11-28T13:24:36Z</time>
      </trkpt>
      <trkpt lat="48.52763" lon="7.16781">
        <ele>785.6</ele>
        <time>2020-11-28T13:24:39Z</time>
      </trkpt>
      <trkpt lat="48.52759" lon="7.16773">
        <ele>786.2</ele>
        <time>2020-11-28T13:24:42Z</time>
      </trkpt>
      <trkpt lat="48.52754" lon="7.16773">
        <ele>786.2</ele>
        <time>2020-11-28T13:24:45Z</time>
      </trkpt>
      <trkpt lat="48.52748" lon="7.16771">
        <ele>786.4</ele>
        <time>2020-11-28T13:24:49Z</time>
      </trkpt>
      <trkpt lat="48.52744" lon="7.16767">
        <ele>786.9</ele>
        <time>2020-11-28T13:24:52Z</time>
      </trkpt>
      <trkpt lat="48.52739" lon="7.16761">
        <ele>787.3</ele>
        <time>2020-11-28T13:25:16Z</time>
      </trkpt>
      <trkpt lat="48.52736" lon="7.16757">
        <ele>787.5</ele>
        <time>2020-11-28T13:25:19Z</time>
      </trkpt>
      <trkpt lat="48.52732" lon="7.16751">
        <ele>787.8</ele>
        <time>2020-11-28T13:25:22Z</time>
      </trkpt>
      <trkpt lat="48.52728" lon="7.16745">
        <ele>788.6</ele>
        <time>2020-11-28T13:25:25Z</time>
      </trkpt>
      <trkpt lat="48.52722" lon="7.16742">
        <ele>788.5</ele>
        <time>2020-11-28T13:25:28Z</time>
      </trkpt>
      <trkpt lat="48.52717" lon="7.16737">
        <ele>789.2</ele>
        <time>2020-11-28T13:25:31Z</time>
      </trkpt>
      <trkpt lat="48.52712" lon="7.16731">
        <ele>789.5</ele>
        <time>2020-11-28T13:25:34Z</time>
      </trkpt>
      <trkpt lat="48.52707" lon="7.16728">
        <ele>790</ele>
        <time>2020-11-28T13:25:37Z</time>
      </trkpt>
      <trkpt lat="48.52702" lon="7.16726">
        <ele>790.3</ele>
        <time>2020-11-28T13:25:40Z</time>
      </trkpt>
      <trkpt lat="48.52697" lon="7.16723">
        <ele>790.5</ele>
        <time>2020-11-28T13:25:43Z</time>
      </trkpt>
      <trkpt lat="48.52693" lon="7.16719">
        <ele>790.6</ele>
        <time>2020-11-28T13:25:45Z</time>
      </trkpt>
      <trkpt lat="48.52688" lon="7.16716">
        <ele>790.2</ele>
        <time>2020-11-28T13:25:47Z</time>
      </trkpt>
      <trkpt lat="48.52683" lon="7.16712">
        <ele>790.8</ele>
        <time>2020-11-28T13:25:50Z</time>
      </trkpt>
      <trkpt lat="48.52677" lon="7.16708">
        <ele>791.7</ele>
        <time>2020-11-28T13:25:53Z</time>
      </trkpt>
      <trkpt lat="48.52671" lon="7.16705">
        <ele>792.7</ele>
        <time>2020-11-28T13:25:56Z</time>
      </trkpt>
      <trkpt lat="48.52666" lon="7.16701">
        <ele>793.1</ele>
        <time>2020-11-28T13:25:59Z</time>
      </trkpt>
      <trkpt lat="48.52661" lon="7.16698">
        <ele>793.1</ele>
        <time>2020-11-28T13:26:02Z</time>
      </trkpt>
      <trkpt lat="48.52655" lon="7.16696">
        <ele>793.5</ele>
        <time>2020-11-28T13:26:05Z</time>
      </trkpt>
      <trkpt lat="48.5265" lon="7.16693">
        <ele>793.2</ele>
        <time>2020-11-28T13:26:08Z</time>
      </trkpt>
      <trkpt lat="48.52644" lon="7.16691">
        <ele>794.1</ele>
        <time>2020-11-28T13:26:11Z</time>
      </trkpt>
      <trkpt lat="48.5264" lon="7.1669">
        <ele>794.1</ele>
        <time>2020-11-28T13:26:13Z</time>
      </trkpt>
      <trkpt lat="48.52633" lon="7.16688">
        <ele>794.2</ele>
        <time>2020-11-28T13:26:16Z</time>
      </trkpt>
      <trkpt lat="48.52627" lon="7.16687">
        <ele>794.1</ele>
        <time>2020-11-28T13:26:19Z</time>
      </trkpt>
      <trkpt lat="48.52622" lon="7.16687">
        <ele>794.2</ele>
        <time>2020-11-28T13:26:22Z</time>
      </trkpt>
      <trkpt lat="48.52617" lon="7.16686">
        <ele>794.8</ele>
        <time>2020-11-28T13:26:25Z</time>
      </trkpt>
      <trkpt lat="48.52611" lon="7.16685">
        <ele>795.2</ele>
        <time>2020-11-28T13:26:28Z</time>
      </trkpt>
      <trkpt lat="48.52606" lon="7.16683">
        <ele>795.5</ele>
        <time>2020-11-28T13:26:31Z</time>
      </trkpt>
      <trkpt lat="48.52601" lon="7.16682">
        <ele>795.8</ele>
        <time>2020-11-28T13:26:34Z</time>
      </trkpt>
      <trkpt lat="48.52595" lon="7.16681">
        <ele>796.6</ele>
        <time>2020-11-28T13:26:37Z</time>
      </trkpt>
      <trkpt lat="48.52589" lon="7.16683">
        <ele>796.3</ele>
        <time>2020-11-28T13:26:40Z</time>
      </trkpt>
      <trkpt lat="48.52584" lon="7.16682">
        <ele>796.4</ele>
        <time>2020-11-28T13:26:43Z</time>
      </trkpt>
      <trkpt lat="48.52577" lon="7.16683">
        <ele>797.2</ele>
        <time>2020-11-28T13:26:46Z</time>
      </trkpt>
      <trkpt lat="48.52571" lon="7.16684">
        <ele>798</ele>
        <time>2020-11-28T13:26:49Z</time>
      </trkpt>
      <trkpt lat="48.52565" lon="7.16685">
        <ele>797.8</ele>
        <time>2020-11-28T13:26:52Z</time>
      </trkpt>
      <trkpt lat="48.52559" lon="7.16687">
        <ele>798</ele>
        <time>2020-11-28T13:26:55Z</time>
      </trkpt>
      <trkpt lat="48.52553" lon="7.16688">
        <ele>798.4</ele>
        <time>2020-11-28T13:26:58Z</time>
      </trkpt>
      <trkpt lat="48.52547" lon="7.16689">
        <ele>798.6</ele>
        <time>2020-11-28T13:27:01Z</time>
      </trkpt>
      <trkpt lat="48.52542" lon="7.16691">
        <ele>798.8</ele>
        <time>2020-11-28T13:27:04Z</time>
      </trkpt>
      <trkpt lat="48.52536" lon="7.16693">
        <ele>799.2</ele>
        <time>2020-11-28T13:27:07Z</time>
      </trkpt>
      <trkpt lat="48.5253" lon="7.16695">
        <ele>799.1</ele>
        <time>2020-11-28T13:27:10Z</time>
      </trkpt>
      <trkpt lat="48.52524" lon="7.16697">
        <ele>799.1</ele>
        <time>2020-11-28T13:27:13Z</time>
      </trkpt>
      <trkpt lat="48.52518" lon="7.16698">
        <ele>799.8</ele>
        <time>2020-11-28T13:27:16Z</time>
      </trkpt>
      <trkpt lat="48.52512" lon="7.16699">
        <ele>801.5</ele>
        <time>2020-11-28T13:27:19Z</time>
      </trkpt>
      <trkpt lat="48.52506" lon="7.16699">
        <ele>802.9</ele>
        <time>2020-11-28T13:27:22Z</time>
      </trkpt>
      <trkpt lat="48.52501" lon="7.167">
        <ele>803.9</ele>
        <time>2020-11-28T13:27:25Z</time>
      </trkpt>
      <trkpt lat="48.52495" lon="7.167">
        <ele>803.8</ele>
        <time>2020-11-28T13:27:28Z</time>
      </trkpt>
      <trkpt lat="48.52489" lon="7.16701">
        <ele>802.9</ele>
        <time>2020-11-28T13:27:31Z</time>
      </trkpt>
      <trkpt lat="48.52483" lon="7.16701">
        <ele>802.2</ele>
        <time>2020-11-28T13:27:34Z</time>
      </trkpt>
      <trkpt lat="48.52478" lon="7.16701">
        <ele>802</ele>
        <time>2020-11-28T13:27:37Z</time>
      </trkpt>
      <trkpt lat="48.52472" lon="7.16702">
        <ele>802</ele>
        <time>2020-11-28T13:27:40Z</time>
      </trkpt>
      <trkpt lat="48.52467" lon="7.16703">
        <ele>802.9</ele>
        <time>2020-11-28T13:27:43Z</time>
      </trkpt>
      <trkpt lat="48.52461" lon="7.16704">
        <ele>804.2</ele>
        <time>2020-11-28T13:27:46Z</time>
      </trkpt>
      <trkpt lat="48.52455" lon="7.16706">
        <ele>804.5</ele>
        <time>2020-11-28T13:27:49Z</time>
      </trkpt>
      <trkpt lat="48.52449" lon="7.16709">
        <ele>804.9</ele>
        <time>2020-11-28T13:27:52Z</time>
      </trkpt>
      <trkpt lat="48.52444" lon="7.16713">
        <ele>806</ele>
        <time>2020-11-28T13:27:55Z</time>
      </trkpt>
      <trkpt lat="48.52439" lon="7.16716">
        <ele>806.9</ele>
        <time>2020-11-28T13:27:58Z</time>
      </trkpt>
      <trkpt lat="48.52434" lon="7.16719">
        <ele>806.6</ele>
        <time>2020-11-28T13:28:01Z</time>
      </trkpt>
      <trkpt lat="48.5243" lon="7.16721">
        <ele>805.7</ele>
        <time>2020-11-28T13:28:04Z</time>
      </trkpt>
      <trkpt lat="48.52425" lon="7.16723">
        <ele>806.5</ele>
        <time>2020-11-28T13:28:07Z</time>
      </trkpt>
      <trkpt lat="48.52419" lon="7.16726">
        <ele>807.4</ele>
        <time>2020-11-28T13:28:10Z</time>
      </trkpt>
      <trkpt lat="48.52414" lon="7.16728">
        <ele>806.8</ele>
        <time>2020-11-28T13:28:13Z</time>
      </trkpt>
      <trkpt lat="48.52408" lon="7.16731">
        <ele>807.4</ele>
        <time>2020-11-28T13:28:16Z</time>
      </trkpt>
      <trkpt lat="48.52402" lon="7.16733">
        <ele>808.7</ele>
        <time>2020-11-28T13:28:19Z</time>
      </trkpt>
      <trkpt lat="48.52397" lon="7.16735">
        <ele>809.6</ele>
        <time>2020-11-28T13:28:22Z</time>
      </trkpt>
      <trkpt lat="48.52391" lon="7.16737">
        <ele>810</ele>
        <time>2020-11-28T13:28:25Z</time>
      </trkpt>
      <trkpt lat="48.52386" lon="7.1674">
        <ele>810.9</ele>
        <time>2020-11-28T13:28:28Z</time>
      </trkpt>
      <trkpt lat="48.52381" lon="7.16742">
        <ele>811</ele>
        <time>2020-11-28T13:28:31Z</time>
      </trkpt>
      <trkpt lat="48.52376" lon="7.16745">
        <ele>811.4</ele>
        <time>2020-11-28T13:28:34Z</time>
      </trkpt>
      <trkpt lat="48.5237" lon="7.16748">
        <ele>812.7</ele>
        <time>2020-11-28T13:28:37Z</time>
      </trkpt>
      <trkpt lat="48.52365" lon="7.16752">
        <ele>813</ele>
        <time>2020-11-28T13:28:40Z</time>
      </trkpt>
      <trkpt lat="48.52361" lon="7.16756">
        <ele>812.3</ele>
        <time>2020-11-28T13:28:43Z</time>
      </trkpt>
      <trkpt lat="48.52356" lon="7.1676">
        <ele>811.3</ele>
        <time>2020-11-28T13:28:47Z</time>
      </trkpt>
      <trkpt lat="48.52352" lon="7.16763">
        <ele>811.3</ele>
        <time>2020-11-28T13:28:50Z</time>
      </trkpt>
      <trkpt lat="48.52347" lon="7.16766">
        <ele>811.4</ele>
        <time>2020-11-28T13:28:53Z</time>
      </trkpt>
      <trkpt lat="48.52341" lon="7.1677">
        <ele>811.8</ele>
        <time>2020-11-28T13:28:56Z</time>
      </trkpt>
      <trkpt lat="48.52336" lon="7.16774">
        <ele>812.3</ele>
        <time>2020-11-28T13:28:59Z</time>
      </trkpt>
      <trkpt lat="48.52331" lon="7.16777">
        <ele>813.3</ele>
        <time>2020-11-28T13:29:02Z</time>
      </trkpt>
      <trkpt lat="48.52326" lon="7.16782">
        <ele>814</ele>
        <time>2020-11-28T13:29:05Z</time>
      </trkpt>
      <trkpt lat="48.52322" lon="7.16787">
        <ele>814.8</ele>
        <time>2020-11-28T13:29:08Z</time>
      </trkpt>
      <trkpt lat="48.52318" lon="7.16791">
        <ele>815.4</ele>
        <time>2020-11-28T13:29:11Z</time>
      </trkpt>
      <trkpt lat="48.52314" lon="7.16795">
        <ele>815.7</ele>
        <time>2020-11-28T13:29:14Z</time>
      </trkpt>
      <trkpt lat="48.5231" lon="7.16799">
        <ele>815.8</ele>
        <time>2020-11-28T13:29:17Z</time>
      </trkpt>
      <trkpt lat="48.52305" lon="7.16804">
        <ele>816.1</ele>
        <time>2020-11-28T13:29:20Z</time>
      </trkpt>
      <trkpt lat="48.52301" lon="7.1681">
        <ele>815.7</ele>
        <time>2020-11-28T13:29:23Z</time>
      </trkpt>
      <trkpt lat="48.52296" lon="7.16816">
        <ele>814.9</ele>
        <time>2020-11-28T13:29:26Z</time>
      </trkpt>
      <trkpt lat="48.52292" lon="7.16823">
        <ele>813.4</ele>
        <time>2020-11-28T13:29:29Z</time>
      </trkpt>
      <trkpt lat="48.52287" lon="7.16828">
        <ele>812.3</ele>
        <time>2020-11-28T13:29:32Z</time>
      </trkpt>
      <trkpt lat="48.52283" lon="7.16832">
        <ele>811.7</ele>
        <time>2020-11-28T13:29:35Z</time>
      </trkpt>
      <trkpt lat="48.52278" lon="7.16838">
        <ele>811.4</ele>
        <time>2020-11-28T13:29:38Z</time>
      </trkpt>
      <trkpt lat="48.52274" lon="7.16845">
        <ele>811.7</ele>
        <time>2020-11-28T13:29:41Z</time>
      </trkpt>
      <trkpt lat="48.5227" lon="7.16852">
        <ele>812.4</ele>
        <time>2020-11-28T13:29:44Z</time>
      </trkpt>
      <trkpt lat="48.52266" lon="7.16857">
        <ele>814.5</ele>
        <time>2020-11-28T13:29:47Z</time>
      </trkpt>
      <trkpt lat="48.52262" lon="7.16863">
        <ele>816.1</ele>
        <time>2020-11-28T13:29:50Z</time>
      </trkpt>
      <trkpt lat="48.52257" lon="7.16868">
        <ele>817.5</ele>
        <time>2020-11-28T13:29:53Z</time>
      </trkpt>
      <trkpt lat="48.52252" lon="7.16874">
        <ele>818.1</ele>
        <time>2020-11-28T13:29:56Z</time>
      </trkpt>
      <trkpt lat="48.52248" lon="7.16879">
        <ele>818.3</ele>
        <time>2020-11-28T13:29:59Z</time>
      </trkpt>
      <trkpt lat="48.52244" lon="7.16884">
        <ele>818.5</ele>
        <time>2020-11-28T13:30:02Z</time>
      </trkpt>
      <trkpt lat="48.5224" lon="7.16889">
        <ele>818.8</ele>
        <time>2020-11-28T13:30:05Z</time>
      </trkpt>
      <trkpt lat="48.52237" lon="7.16895">
        <ele>819.1</ele>
        <time>2020-11-28T13:30:08Z</time>
      </trkpt>
      <trkpt lat="48.52232" lon="7.16899">
        <ele>820</ele>
        <time>2020-11-28T13:30:11Z</time>
      </trkpt>
      <trkpt lat="48.52228" lon="7.16902">
        <ele>821.1</ele>
        <time>2020-11-28T13:30:14Z</time>
      </trkpt>
      <trkpt lat="48.52223" lon="7.16905">
        <ele>822.1</ele>
        <time>2020-11-28T13:30:17Z</time>
      </trkpt>
      <trkpt lat="48.52219" lon="7.16911">
        <ele>823</ele>
        <time>2020-11-28T13:30:20Z</time>
      </trkpt>
      <trkpt lat="48.52215" lon="7.16918">
        <ele>823.5</ele>
        <time>2020-11-28T13:30:23Z</time>
      </trkpt>
      <trkpt lat="48.52211" lon="7.16923">
        <ele>824.2</ele>
        <time>2020-11-28T13:30:26Z</time>
      </trkpt>
      <trkpt lat="48.52206" lon="7.16927">
        <ele>824.9</ele>
        <time>2020-11-28T13:30:29Z</time>
      </trkpt>
      <trkpt lat="48.52201" lon="7.16931">
        <ele>825.3</ele>
        <time>2020-11-28T13:30:32Z</time>
      </trkpt>
      <trkpt lat="48.52197" lon="7.16936">
        <ele>825.9</ele>
        <time>2020-11-28T13:30:35Z</time>
      </trkpt>
      <trkpt lat="48.52193" lon="7.1694">
        <ele>825.9</ele>
        <time>2020-11-28T13:30:38Z</time>
      </trkpt>
      <trkpt lat="48.52188" lon="7.16944">
        <ele>826.3</ele>
        <time>2020-11-28T13:30:41Z</time>
      </trkpt>
      <trkpt lat="48.52183" lon="7.16948">
        <ele>826.6</ele>
        <time>2020-11-28T13:30:44Z</time>
      </trkpt>
      <trkpt lat="48.52179" lon="7.16954">
        <ele>826.9</ele>
        <time>2020-11-28T13:30:47Z</time>
      </trkpt>
      <trkpt lat="48.52174" lon="7.16959">
        <ele>827.3</ele>
        <time>2020-11-28T13:30:50Z</time>
      </trkpt>
      <trkpt lat="48.52168" lon="7.16963">
        <ele>827.8</ele>
        <time>2020-11-28T13:30:53Z</time>
      </trkpt>
      <trkpt lat="48.52164" lon="7.16966">
        <ele>828.1</ele>
        <time>2020-11-28T13:30:56Z</time>
      </trkpt>
      <trkpt lat="48.52159" lon="7.16972">
        <ele>828.7</ele>
        <time>2020-11-28T13:30:59Z</time>
      </trkpt>
      <trkpt lat="48.52155" lon="7.16976">
        <ele>828.9</ele>
        <time>2020-11-28T13:31:01Z</time>
      </trkpt>
      <trkpt lat="48.5215" lon="7.16981">
        <ele>829</ele>
        <time>2020-11-28T13:31:04Z</time>
      </trkpt>
      <trkpt lat="48.52145" lon="7.16985">
        <ele>829.7</ele>
        <time>2020-11-28T13:31:07Z</time>
      </trkpt>
      <trkpt lat="48.5214" lon="7.16989">
        <ele>830</ele>
        <time>2020-11-28T13:31:10Z</time>
      </trkpt>
      <trkpt lat="48.52135" lon="7.16993">
        <ele>830.8</ele>
        <time>2020-11-28T13:31:13Z</time>
      </trkpt>
      <trkpt lat="48.5213" lon="7.16996">
        <ele>831.7</ele>
        <time>2020-11-28T13:31:16Z</time>
      </trkpt>
      <trkpt lat="48.52125" lon="7.17">
        <ele>831.6</ele>
        <time>2020-11-28T13:31:19Z</time>
      </trkpt>
      <trkpt lat="48.5212" lon="7.17005">
        <ele>832.2</ele>
        <time>2020-11-28T13:31:22Z</time>
      </trkpt>
      <trkpt lat="48.52114" lon="7.17007">
        <ele>832.4</ele>
        <time>2020-11-28T13:31:25Z</time>
      </trkpt>
      <trkpt lat="48.52109" lon="7.1701">
        <ele>832.8</ele>
        <time>2020-11-28T13:31:28Z</time>
      </trkpt>
      <trkpt lat="48.52104" lon="7.17015">
        <ele>832.7</ele>
        <time>2020-11-28T13:31:31Z</time>
      </trkpt>
      <trkpt lat="48.521" lon="7.17018">
        <ele>832.2</ele>
        <time>2020-11-28T13:31:33Z</time>
      </trkpt>
      <trkpt lat="48.52093" lon="7.17024">
        <ele>832.4</ele>
        <time>2020-11-28T13:31:36Z</time>
      </trkpt>
      <trkpt lat="48.52088" lon="7.17028">
        <ele>832.4</ele>
        <time>2020-11-28T13:31:38Z</time>
      </trkpt>
      <trkpt lat="48.52083" lon="7.17032">
        <ele>832.6</ele>
        <time>2020-11-28T13:31:40Z</time>
      </trkpt>
      <trkpt lat="48.52078" lon="7.17036">
        <ele>832.6</ele>
        <time>2020-11-28T13:31:42Z</time>
      </trkpt>
      <trkpt lat="48.52073" lon="7.1704">
        <ele>832.1</ele>
        <time>2020-11-28T13:31:44Z</time>
      </trkpt>
      <trkpt lat="48.52067" lon="7.17044">
        <ele>832.2</ele>
        <time>2020-11-28T13:31:46Z</time>
      </trkpt>
      <trkpt lat="48.52059" lon="7.17051">
        <ele>831.5</ele>
        <time>2020-11-28T13:31:49Z</time>
      </trkpt>
      <trkpt lat="48.52051" lon="7.17058">
        <ele>831.7</ele>
        <time>2020-11-28T13:31:52Z</time>
      </trkpt>
      <trkpt lat="48.52045" lon="7.17062">
        <ele>832.1</ele>
        <time>2020-11-28T13:31:54Z</time>
      </trkpt>
      <trkpt lat="48.52038" lon="7.17068">
        <ele>832.1</ele>
        <time>2020-11-28T13:31:56Z</time>
      </trkpt>
      <trkpt lat="48.52033" lon="7.17074">
        <ele>832.1</ele>
        <time>2020-11-28T13:31:58Z</time>
      </trkpt>
      <trkpt lat="48.52027" lon="7.17077">
        <ele>831.9</ele>
        <time>2020-11-28T13:32:00Z</time>
      </trkpt>
      <trkpt lat="48.52017" lon="7.17082">
        <ele>832.2</ele>
        <time>2020-11-28T13:32:03Z</time>
      </trkpt>
      <trkpt lat="48.52012" lon="7.17084">
        <ele>832</ele>
        <time>2020-11-28T13:32:06Z</time>
      </trkpt>
      <trkpt lat="48.52006" lon="7.17089">
        <ele>831.7</ele>
        <time>2020-11-28T13:32:08Z</time>
      </trkpt>
      <trkpt lat="48.52001" lon="7.17094">
        <ele>831.5</ele>
        <time>2020-11-28T13:32:18Z</time>
      </trkpt>
      <trkpt lat="48.51995" lon="7.17097">
        <ele>830.8</ele>
        <time>2020-11-28T13:32:21Z</time>
      </trkpt>
      <trkpt lat="48.5199" lon="7.17099">
        <ele>831.4</ele>
        <time>2020-11-28T13:32:23Z</time>
      </trkpt>
      <trkpt lat="48.51984" lon="7.17101">
        <ele>831</ele>
        <time>2020-11-28T13:32:25Z</time>
      </trkpt>
      <trkpt lat="48.51977" lon="7.17103">
        <ele>830.8</ele>
        <time>2020-11-28T13:32:27Z</time>
      </trkpt>
      <trkpt lat="48.5197" lon="7.17107">
        <ele>830.5</ele>
        <time>2020-11-28T13:32:29Z</time>
      </trkpt>
      <trkpt lat="48.51958" lon="7.17114">
        <ele>831.2</ele>
        <time>2020-11-28T13:32:32Z</time>
      </trkpt>
      <trkpt lat="48.51951" lon="7.17118">
        <ele>831.7</ele>
        <time>2020-11-28T13:32:34Z</time>
      </trkpt>
      <trkpt lat="48.51943" lon="7.17121">
        <ele>831.3</ele>
        <time>2020-11-28T13:32:36Z</time>
      </trkpt>
      <trkpt lat="48.51936" lon="7.17124">
        <ele>831</ele>
        <time>2020-11-28T13:32:38Z</time>
      </trkpt>
      <trkpt lat="48.51928" lon="7.17126">
        <ele>831.1</ele>
        <time>2020-11-28T13:32:40Z</time>
      </trkpt>
      <trkpt lat="48.51919" lon="7.17129">
        <ele>831.4</ele>
        <time>2020-11-28T13:32:42Z</time>
      </trkpt>
      <trkpt lat="48.51911" lon="7.17131">
        <ele>831.9</ele>
        <time>2020-11-28T13:32:44Z</time>
      </trkpt>
      <trkpt lat="48.51901" lon="7.17132">
        <ele>832.2</ele>
        <time>2020-11-28T13:32:46Z</time>
      </trkpt>
      <trkpt lat="48.51889" lon="7.17131">
        <ele>833.3</ele>
        <time>2020-11-28T13:32:48Z</time>
      </trkpt>
      <trkpt lat="48.51878" lon="7.17131">
        <ele>834.7</ele>
        <time>2020-11-28T13:32:50Z</time>
      </trkpt>
      <trkpt lat="48.51869" lon="7.17131">
        <ele>836.2</ele>
        <time>2020-11-28T13:32:52Z</time>
      </trkpt>
      <trkpt lat="48.51859" lon="7.17132">
        <ele>837.9</ele>
        <time>2020-11-28T13:32:55Z</time>
      </trkpt>
      <trkpt lat="48.51847" lon="7.17132">
        <ele>838.3</ele>
        <time>2020-11-28T13:32:58Z</time>
      </trkpt>
      <trkpt lat="48.51838" lon="7.17134">
        <ele>838.8</ele>
        <time>2020-11-28T13:33:00Z</time>
      </trkpt>
      <trkpt lat="48.51831" lon="7.17135">
        <ele>839.5</ele>
        <time>2020-11-28T13:33:02Z</time>
      </trkpt>
      <trkpt lat="48.51819" lon="7.17138">
        <ele>839.1</ele>
        <time>2020-11-28T13:33:05Z</time>
      </trkpt>
      <trkpt lat="48.51809" lon="7.17139">
        <ele>839.2</ele>
        <time>2020-11-28T13:33:07Z</time>
      </trkpt>
      <trkpt lat="48.518" lon="7.1714">
        <ele>838.9</ele>
        <time>2020-11-28T13:33:09Z</time>
      </trkpt>
      <trkpt lat="48.51792" lon="7.17137">
        <ele>839.1</ele>
        <time>2020-11-28T13:33:11Z</time>
      </trkpt>
      <trkpt lat="48.51783" lon="7.17136">
        <ele>838.9</ele>
        <time>2020-11-28T13:33:13Z</time>
      </trkpt>
      <trkpt lat="48.51769" lon="7.17135">
        <ele>839.2</ele>
        <time>2020-11-28T13:33:16Z</time>
      </trkpt>
      <trkpt lat="48.51761" lon="7.17134">
        <ele>838.3</ele>
        <time>2020-11-28T13:33:18Z</time>
      </trkpt>
      <trkpt lat="48.51749" lon="7.17131">
        <ele>837</ele>
        <time>2020-11-28T13:33:21Z</time>
      </trkpt>
      <trkpt lat="48.5174" lon="7.17127">
        <ele>836.2</ele>
        <time>2020-11-28T13:33:23Z</time>
      </trkpt>
      <trkpt lat="48.5173" lon="7.1712">
        <ele>833.3</ele>
        <time>2020-11-28T13:33:26Z</time>
      </trkpt>
      <trkpt lat="48.51724" lon="7.17115">
        <ele>832.5</ele>
        <time>2020-11-28T13:33:28Z</time>
      </trkpt>
      <trkpt lat="48.51719" lon="7.17113">
        <ele>831.6</ele>
        <time>2020-11-28T13:33:31Z</time>
      </trkpt>
      <trkpt lat="48.51714" lon="7.17113">
        <ele>831</ele>
        <time>2020-11-28T13:33:39Z</time>
      </trkpt>
      <trkpt lat="48.5171" lon="7.17111">
        <ele>832.5</ele>
        <time>2020-11-28T13:33:58Z</time>
      </trkpt>
      <trkpt lat="48.51706" lon="7.17107">
        <ele>833.9</ele>
        <time>2020-11-28T13:34:00Z</time>
      </trkpt>
      <trkpt lat="48.51701" lon="7.17103">
        <ele>835.3</ele>
        <time>2020-11-28T13:34:02Z</time>
      </trkpt>
      <trkpt lat="48.51696" lon="7.17098">
        <ele>836.1</ele>
        <time>2020-11-28T13:34:04Z</time>
      </trkpt>
      <trkpt lat="48.51691" lon="7.17094">
        <ele>836.5</ele>
        <time>2020-11-28T13:34:06Z</time>
      </trkpt>
      <trkpt lat="48.51687" lon="7.17089">
        <ele>836.5</ele>
        <time>2020-11-28T13:34:08Z</time>
      </trkpt>
      <trkpt lat="48.51683" lon="7.17083">
        <ele>836.8</ele>
        <time>2020-11-28T13:34:10Z</time>
      </trkpt>
      <trkpt lat="48.51678" lon="7.17077">
        <ele>835.8</ele>
        <time>2020-11-28T13:34:12Z</time>
      </trkpt>
      <trkpt lat="48.51673" lon="7.17072">
        <ele>835</ele>
        <time>2020-11-28T13:34:14Z</time>
      </trkpt>
      <trkpt lat="48.51666" lon="7.17066">
        <ele>834.8</ele>
        <time>2020-11-28T13:34:16Z</time>
      </trkpt>
      <trkpt lat="48.51659" lon="7.17061">
        <ele>833.9</ele>
        <time>2020-11-28T13:34:18Z</time>
      </trkpt>
      <trkpt lat="48.51652" lon="7.17056">
        <ele>832.8</ele>
        <time>2020-11-28T13:34:20Z</time>
      </trkpt>
      <trkpt lat="48.51646" lon="7.17051">
        <ele>832.1</ele>
        <time>2020-11-28T13:34:22Z</time>
      </trkpt>
      <trkpt lat="48.51638" lon="7.17047">
        <ele>830.9</ele>
        <time>2020-11-28T13:34:24Z</time>
      </trkpt>
      <trkpt lat="48.51627" lon="7.17044">
        <ele>829.5</ele>
        <time>2020-11-28T13:34:26Z</time>
      </trkpt>
      <trkpt lat="48.51617" lon="7.17041">
        <ele>828.4</ele>
        <time>2020-11-28T13:34:28Z</time>
      </trkpt>
      <trkpt lat="48.51606" lon="7.17037">
        <ele>827.5</ele>
        <time>2020-11-28T13:34:30Z</time>
      </trkpt>
      <trkpt lat="48.51598" lon="7.17034">
        <ele>826.8</ele>
        <time>2020-11-28T13:34:32Z</time>
      </trkpt>
      <trkpt lat="48.51593" lon="7.17028">
        <ele>826.8</ele>
        <time>2020-11-28T13:34:34Z</time>
      </trkpt>
      <trkpt lat="48.51588" lon="7.17023">
        <ele>826.1</ele>
        <time>2020-11-28T13:34:36Z</time>
      </trkpt>
      <trkpt lat="48.51584" lon="7.17018">
        <ele>825.8</ele>
        <time>2020-11-28T13:34:38Z</time>
      </trkpt>
      <trkpt lat="48.51579" lon="7.17008">
        <ele>825.7</ele>
        <time>2020-11-28T13:34:41Z</time>
      </trkpt>
      <trkpt lat="48.51577" lon="7.17001">
        <ele>825</ele>
        <time>2020-11-28T13:34:43Z</time>
      </trkpt>
      <trkpt lat="48.51575" lon="7.16994">
        <ele>824.9</ele>
        <time>2020-11-28T13:34:45Z</time>
      </trkpt>
      <trkpt lat="48.51573" lon="7.16987">
        <ele>824.5</ele>
        <time>2020-11-28T13:34:48Z</time>
      </trkpt>
      <trkpt lat="48.51572" lon="7.16979">
        <ele>824.2</ele>
        <time>2020-11-28T13:34:51Z</time>
      </trkpt>
      <trkpt lat="48.51574" lon="7.16971">
        <ele>824</ele>
        <time>2020-11-28T13:34:54Z</time>
      </trkpt>
      <trkpt lat="48.51574" lon="7.16963">
        <ele>824.2</ele>
        <time>2020-11-28T13:34:57Z</time>
      </trkpt>
      <trkpt lat="48.51574" lon="7.16956">
        <ele>824.5</ele>
        <time>2020-11-28T13:34:59Z</time>
      </trkpt>
      <trkpt lat="48.51574" lon="7.16947">
        <ele>823.8</ele>
        <time>2020-11-28T13:35:02Z</time>
      </trkpt>
      <trkpt lat="48.51574" lon="7.1694">
        <ele>823.1</ele>
        <time>2020-11-28T13:35:07Z</time>
      </trkpt>
      <trkpt lat="48.51572" lon="7.16933">
        <ele>821.9</ele>
        <time>2020-11-28T13:35:24Z</time>
      </trkpt>
      <trkpt lat="48.51569" lon="7.16927">
        <ele>823.4</ele>
        <time>2020-11-28T13:35:35Z</time>
      </trkpt>
      <trkpt lat="48.51569" lon="7.1692">
        <ele>823.5</ele>
        <time>2020-11-28T13:35:42Z</time>
      </trkpt>
      <trkpt lat="48.51568" lon="7.16913">
        <ele>822.6</ele>
        <time>2020-11-28T13:35:48Z</time>
      </trkpt>
      <trkpt lat="48.51567" lon="7.16906">
        <ele>825.7</ele>
        <time>2020-11-28T13:35:53Z</time>
      </trkpt>
      <trkpt lat="48.51567" lon="7.16899">
        <ele>827.1</ele>
        <time>2020-11-28T13:35:58Z</time>
      </trkpt>
      <trkpt lat="48.51566" lon="7.16892">
        <ele>827.9</ele>
        <time>2020-11-28T13:36:02Z</time>
      </trkpt>
      <trkpt lat="48.51565" lon="7.16884">
        <ele>829.6</ele>
        <time>2020-11-28T13:36:07Z</time>
      </trkpt>
      <trkpt lat="48.51565" lon="7.16875">
        <ele>830.4</ele>
        <time>2020-11-28T13:36:11Z</time>
      </trkpt>
      <trkpt lat="48.51564" lon="7.16867">
        <ele>831.5</ele>
        <time>2020-11-28T13:36:16Z</time>
      </trkpt>
      <trkpt lat="48.51564" lon="7.1686">
        <ele>832.5</ele>
        <time>2020-11-28T13:36:20Z</time>
      </trkpt>
      <trkpt lat="48.51564" lon="7.16853">
        <ele>833.6</ele>
        <time>2020-11-28T13:36:25Z</time>
      </trkpt>
      <trkpt lat="48.51565" lon="7.16846">
        <ele>833.6</ele>
        <time>2020-11-28T13:36:29Z</time>
      </trkpt>
      <trkpt lat="48.51566" lon="7.16838">
        <ele>834.4</ele>
        <time>2020-11-28T13:36:33Z</time>
      </trkpt>
      <trkpt lat="48.51565" lon="7.1683">
        <ele>836.4</ele>
        <time>2020-11-28T13:36:37Z</time>
      </trkpt>
      <trkpt lat="48.51564" lon="7.16823">
        <ele>837.5</ele>
        <time>2020-11-28T13:36:41Z</time>
      </trkpt>
      <trkpt lat="48.51562" lon="7.16816">
        <ele>837.9</ele>
        <time>2020-11-28T13:36:45Z</time>
      </trkpt>
      <trkpt lat="48.51561" lon="7.16808">
        <ele>836.7</ele>
        <time>2020-11-28T13:36:49Z</time>
      </trkpt>
      <trkpt lat="48.51559" lon="7.16801">
        <ele>835.6</ele>
        <time>2020-11-28T13:36:53Z</time>
      </trkpt>
      <trkpt lat="48.51558" lon="7.16793">
        <ele>835.9</ele>
        <time>2020-11-28T13:36:57Z</time>
      </trkpt>
      <trkpt lat="48.51558" lon="7.16786">
        <ele>836.6</ele>
        <time>2020-11-28T13:37:01Z</time>
      </trkpt>
      <trkpt lat="48.51559" lon="7.16779">
        <ele>838.1</ele>
        <time>2020-11-28T13:37:05Z</time>
      </trkpt>
      <trkpt lat="48.51558" lon="7.16772">
        <ele>838.4</ele>
        <time>2020-11-28T13:37:08Z</time>
      </trkpt>
      <trkpt lat="48.51556" lon="7.16765">
        <ele>837.5</ele>
        <time>2020-11-28T13:37:12Z</time>
      </trkpt>
      <trkpt lat="48.51554" lon="7.16759">
        <ele>838.3</ele>
        <time>2020-11-28T13:37:16Z</time>
      </trkpt>
      <trkpt lat="48.51552" lon="7.16751">
        <ele>840.7</ele>
        <time>2020-11-28T13:37:22Z</time>
      </trkpt>
      <trkpt lat="48.5155" lon="7.16744">
        <ele>840.2</ele>
        <time>2020-11-28T13:37:28Z</time>
      </trkpt>
      <trkpt lat="48.51549" lon="7.16737">
        <ele>840.3</ele>
        <time>2020-11-28T13:37:33Z</time>
      </trkpt>
      <trkpt lat="48.51548" lon="7.16729">
        <ele>841</ele>
        <time>2020-11-28T13:37:38Z</time>
      </trkpt>
      <trkpt lat="48.51547" lon="7.16722">
        <ele>841.3</ele>
        <time>2020-11-28T13:37:43Z</time>
      </trkpt>
      <trkpt lat="48.51546" lon="7.16715">
        <ele>841.7</ele>
        <time>2020-11-28T13:37:48Z</time>
      </trkpt>
      <trkpt lat="48.51547" lon="7.16707">
        <ele>841.5</ele>
        <time>2020-11-28T13:37:53Z</time>
      </trkpt>
      <trkpt lat="48.51547" lon="7.167">
        <ele>841.8</ele>
        <time>2020-11-28T13:37:58Z</time>
      </trkpt>
      <trkpt lat="48.51547" lon="7.16692">
        <ele>842.7</ele>
        <time>2020-11-28T13:38:03Z</time>
      </trkpt>
      <trkpt lat="48.51548" lon="7.16684">
        <ele>844.4</ele>
        <time>2020-11-28T13:38:08Z</time>
      </trkpt>
      <trkpt lat="48.51548" lon="7.16677">
        <ele>845.1</ele>
        <time>2020-11-28T13:38:12Z</time>
      </trkpt>
      <trkpt lat="48.51548" lon="7.16669">
        <ele>845.5</ele>
        <time>2020-11-28T13:38:16Z</time>
      </trkpt>
      <trkpt lat="48.51548" lon="7.16662">
        <ele>846</ele>
        <time>2020-11-28T13:38:19Z</time>
      </trkpt>
      <trkpt lat="48.51549" lon="7.16655">
        <ele>846.4</ele>
        <time>2020-11-28T13:38:24Z</time>
      </trkpt>
      <trkpt lat="48.51544" lon="7.16658">
        <ele>848.5</ele>
        <time>2020-11-28T13:38:39Z</time>
      </trkpt>
      <trkpt lat="48.51542" lon="7.16664">
        <ele>848.7</ele>
        <time>2020-11-28T13:38:43Z</time>
      </trkpt>
      <trkpt lat="48.5154" lon="7.16672">
        <ele>849.6</ele>
        <time>2020-11-28T13:38:48Z</time>
      </trkpt>
      <trkpt lat="48.51537" lon="7.16679">
        <ele>849.5</ele>
        <time>2020-11-28T13:38:52Z</time>
      </trkpt>
      <trkpt lat="48.51535" lon="7.16684">
        <ele>850.3</ele>
        <time>2020-11-28T13:38:56Z</time>
      </trkpt>
      <trkpt lat="48.51533" lon="7.16691">
        <ele>850.9</ele>
        <time>2020-11-28T13:39:00Z</time>
      </trkpt>
      <trkpt lat="48.51531" lon="7.16698">
        <ele>851.5</ele>
        <time>2020-11-28T13:39:04Z</time>
      </trkpt>
      <trkpt lat="48.51529" lon="7.16705">
        <ele>851.7</ele>
        <time>2020-11-28T13:39:08Z</time>
      </trkpt>
      <trkpt lat="48.51527" lon="7.16711">
        <ele>853.1</ele>
        <time>2020-11-28T13:39:14Z</time>
      </trkpt>
      <trkpt lat="48.51525" lon="7.16718">
        <ele>853.4</ele>
        <time>2020-11-28T13:39:19Z</time>
      </trkpt>
      <trkpt lat="48.51524" lon="7.16725">
        <ele>854.6</ele>
        <time>2020-11-28T13:39:24Z</time>
      </trkpt>
      <trkpt lat="48.51521" lon="7.16731">
        <ele>855.4</ele>
        <time>2020-11-28T13:39:29Z</time>
      </trkpt>
      <trkpt lat="48.51518" lon="7.16738">
        <ele>856.2</ele>
        <time>2020-11-28T13:39:34Z</time>
      </trkpt>
      <trkpt lat="48.51516" lon="7.16744">
        <ele>856.6</ele>
        <time>2020-11-28T13:39:38Z</time>
      </trkpt>
      <trkpt lat="48.51512" lon="7.1675">
        <ele>857.6</ele>
        <time>2020-11-28T13:39:42Z</time>
      </trkpt>
      <trkpt lat="48.51508" lon="7.16755">
        <ele>858</ele>
        <time>2020-11-28T13:39:46Z</time>
      </trkpt>
      <trkpt lat="48.51504" lon="7.1676">
        <ele>858.5</ele>
        <time>2020-11-28T13:39:51Z</time>
      </trkpt>
      <trkpt lat="48.51499" lon="7.16765">
        <ele>859.5</ele>
        <time>2020-11-28T13:39:56Z</time>
      </trkpt>
      <trkpt lat="48.51494" lon="7.16767">
        <ele>860.5</ele>
        <time>2020-11-28T13:40:01Z</time>
      </trkpt>
      <trkpt lat="48.51489" lon="7.16765">
        <ele>861.8</ele>
        <time>2020-11-28T13:40:07Z</time>
      </trkpt>
      <trkpt lat="48.51485" lon="7.16761">
        <ele>861.7</ele>
        <time>2020-11-28T13:40:11Z</time>
      </trkpt>
      <trkpt lat="48.5148" lon="7.16758">
        <ele>860.6</ele>
        <time>2020-11-28T13:40:15Z</time>
      </trkpt>
      <trkpt lat="48.51475" lon="7.16757">
        <ele>860.9</ele>
        <time>2020-11-28T13:40:19Z</time>
      </trkpt>
      <trkpt lat="48.5147" lon="7.16754">
        <ele>860.1</ele>
        <time>2020-11-28T13:40:24Z</time>
      </trkpt>
      <trkpt lat="48.51465" lon="7.16753">
        <ele>861</ele>
        <time>2020-11-28T13:40:29Z</time>
      </trkpt>
      <trkpt lat="48.5146" lon="7.16753">
        <ele>861.8</ele>
        <time>2020-11-28T13:40:33Z</time>
      </trkpt>
      <trkpt lat="48.51455" lon="7.16751">
        <ele>863.4</ele>
        <time>2020-11-28T13:40:37Z</time>
      </trkpt>
      <trkpt lat="48.51449" lon="7.16749">
        <ele>862.9</ele>
        <time>2020-11-28T13:40:41Z</time>
      </trkpt>
      <trkpt lat="48.51444" lon="7.16747">
        <ele>862.9</ele>
        <time>2020-11-28T13:40:45Z</time>
      </trkpt>
      <trkpt lat="48.51439" lon="7.16746">
        <ele>860.4</ele>
        <time>2020-11-28T13:40:51Z</time>
      </trkpt>
      <trkpt lat="48.51434" lon="7.16744">
        <ele>858</ele>
        <time>2020-11-28T13:40:58Z</time>
      </trkpt>
      <trkpt lat="48.51429" lon="7.16743">
        <ele>860.4</ele>
        <time>2020-11-28T13:41:03Z</time>
      </trkpt>
      <trkpt lat="48.51424" lon="7.16744">
        <ele>861.3</ele>
        <time>2020-11-28T13:41:07Z</time>
      </trkpt>
      <trkpt lat="48.51419" lon="7.16745">
        <ele>863.3</ele>
        <time>2020-11-28T13:41:12Z</time>
      </trkpt>
      <trkpt lat="48.51415" lon="7.16749">
        <ele>865</ele>
        <time>2020-11-28T13:41:16Z</time>
      </trkpt>
      <trkpt lat="48.51411" lon="7.16752">
        <ele>866.9</ele>
        <time>2020-11-28T13:41:20Z</time>
      </trkpt>
      <trkpt lat="48.51406" lon="7.16752">
        <ele>867.2</ele>
        <time>2020-11-28T13:41:24Z</time>
      </trkpt>
      <trkpt lat="48.51401" lon="7.16751">
        <ele>868.4</ele>
        <time>2020-11-28T13:41:29Z</time>
      </trkpt>
      <trkpt lat="48.51403" lon="7.16745">
        <ele>872.9</ele>
        <time>2020-11-28T13:41:49Z</time>
      </trkpt>
      <trkpt lat="48.51406" lon="7.16739">
        <ele>873.5</ele>
        <time>2020-11-28T13:41:55Z</time>
      </trkpt>
      <trkpt lat="48.51407" lon="7.16732">
        <ele>871.4</ele>
        <time>2020-11-28T13:42:01Z</time>
      </trkpt>
      <trkpt lat="48.51409" lon="7.16726">
        <ele>870.6</ele>
        <time>2020-11-28T13:42:06Z</time>
      </trkpt>
      <trkpt lat="48.51413" lon="7.16722">
        <ele>870.4</ele>
        <time>2020-11-28T13:42:12Z</time>
      </trkpt>
      <trkpt lat="48.51418" lon="7.1672">
        <ele>871.8</ele>
        <time>2020-11-28T13:42:15Z</time>
      </trkpt>
      <trkpt lat="48.51423" lon="7.16719">
        <ele>873.4</ele>
        <time>2020-11-28T13:42:19Z</time>
      </trkpt>
      <trkpt lat="48.51428" lon="7.16715">
        <ele>874.8</ele>
        <time>2020-11-28T13:42:27Z</time>
      </trkpt>
      <trkpt lat="48.51432" lon="7.16711">
        <ele>875</ele>
        <time>2020-11-28T13:42:33Z</time>
      </trkpt>
      <trkpt lat="48.51436" lon="7.16708">
        <ele>877.1</ele>
        <time>2020-11-28T13:42:38Z</time>
      </trkpt>
      <trkpt lat="48.51441" lon="7.16707">
        <ele>878.9</ele>
        <time>2020-11-28T13:42:44Z</time>
      </trkpt>
      <trkpt lat="48.51445" lon="7.16703">
        <ele>879.5</ele>
        <time>2020-11-28T13:42:50Z</time>
      </trkpt>
      <trkpt lat="48.51449" lon="7.16701">
        <ele>880.2</ele>
        <time>2020-11-28T13:42:56Z</time>
      </trkpt>
      <trkpt lat="48.51454" lon="7.16698">
        <ele>881.5</ele>
        <time>2020-11-28T13:43:02Z</time>
      </trkpt>
      <trkpt lat="48.51458" lon="7.16695">
        <ele>881.9</ele>
        <time>2020-11-28T13:43:06Z</time>
      </trkpt>
      <trkpt lat="48.51453" lon="7.16692">
        <ele>884.2</ele>
        <time>2020-11-28T13:43:17Z</time>
      </trkpt>
      <trkpt lat="48.51449" lon="7.16688">
        <ele>884.3</ele>
        <time>2020-11-28T13:43:23Z</time>
      </trkpt>
      <trkpt lat="48.51445" lon="7.16686">
        <ele>888.1</ele>
        <time>2020-11-28T13:43:41Z</time>
      </trkpt>
      <trkpt lat="48.5144" lon="7.16686">
        <ele>886.9</ele>
        <time>2020-11-28T13:43:47Z</time>
      </trkpt>
      <trkpt lat="48.51435" lon="7.16688">
        <ele>890.3</ele>
        <time>2020-11-28T13:43:55Z</time>
      </trkpt>
      <trkpt lat="48.51438" lon="7.16682">
        <ele>895.2</ele>
        <time>2020-11-28T13:44:13Z</time>
      </trkpt>
      <trkpt lat="48.51443" lon="7.1668">
        <ele>896.8</ele>
        <time>2020-11-28T13:44:18Z</time>
      </trkpt>
      <trkpt lat="48.51447" lon="7.16678">
        <ele>898.5</ele>
        <time>2020-11-28T13:44:24Z</time>
      </trkpt>
      <trkpt lat="48.5145" lon="7.16672">
        <ele>897.8</ele>
        <time>2020-11-28T13:44:31Z</time>
      </trkpt>
      <trkpt lat="48.51452" lon="7.16665">
        <ele>896.5</ele>
        <time>2020-11-28T13:44:38Z</time>
      </trkpt>
      <trkpt lat="48.51454" lon="7.16658">
        <ele>889.7</ele>
        <time>2020-11-28T13:44:46Z</time>
      </trkpt>
      <trkpt lat="48.51456" lon="7.16652">
        <ele>894.5</ele>
        <time>2020-11-28T13:44:52Z</time>
      </trkpt>
      <trkpt lat="48.51457" lon="7.16645">
        <ele>897.3</ele>
        <time>2020-11-28T13:44:58Z</time>
      </trkpt>
      <trkpt lat="48.51457" lon="7.16637">
        <ele>894</ele>
        <time>2020-11-28T13:45:04Z</time>
      </trkpt>
      <trkpt lat="48.51455" lon="7.1663">
        <ele>893.6</ele>
        <time>2020-11-28T13:45:10Z</time>
      </trkpt>
      <trkpt lat="48.51456" lon="7.16622">
        <ele>878.8</ele>
        <time>2020-11-28T13:45:16Z</time>
      </trkpt>
      <trkpt lat="48.51458" lon="7.16615">
        <ele>888.5</ele>
        <time>2020-11-28T13:45:21Z</time>
      </trkpt>
      <trkpt lat="48.51457" lon="7.16608">
        <ele>899.6</ele>
        <time>2020-11-28T13:45:25Z</time>
      </trkpt>
      <trkpt lat="48.51454" lon="7.16603">
        <ele>899.4</ele>
        <time>2020-11-28T13:45:36Z</time>
      </trkpt>
      <trkpt lat="48.51456" lon="7.16597">
        <ele>906.9</ele>
        <time>2020-11-28T13:45:53Z</time>
      </trkpt>
      <trkpt lat="48.51458" lon="7.1659">
        <ele>905.2</ele>
        <time>2020-11-28T13:46:06Z</time>
      </trkpt>
      <trkpt lat="48.51458" lon="7.16583">
        <ele>907.6</ele>
        <time>2020-11-28T13:46:21Z</time>
      </trkpt>
      <trkpt lat="48.51457" lon="7.16576">
        <ele>907.2</ele>
        <time>2020-11-28T13:46:26Z</time>
      </trkpt>
      <trkpt lat="48.51457" lon="7.16569">
        <ele>909.2</ele>
        <time>2020-11-28T13:46:31Z</time>
      </trkpt>
      <trkpt lat="48.51453" lon="7.16564">
        <ele>875.4</ele>
        <time>2020-11-28T13:46:42Z</time>
      </trkpt>
      <trkpt lat="48.5145" lon="7.16559">
        <ele>907.4</ele>
        <time>2020-11-28T13:46:54Z</time>
      </trkpt>
      <trkpt lat="48.51447" lon="7.16553">
        <ele>913.4</ele>
        <time>2020-11-28T13:47:19Z</time>
      </trkpt>
      <trkpt lat="48.51447" lon="7.16545">
        <ele>913</ele>
        <time>2020-11-28T13:47:21Z</time>
      </trkpt>
      <trkpt lat="48.51448" lon="7.16537">
        <ele>913.3</ele>
        <time>2020-11-28T13:47:32Z</time>
      </trkpt>
      <trkpt lat="48.51447" lon="7.1653">
        <ele>914.2</ele>
        <time>2020-11-28T13:47:36Z</time>
      </trkpt>
      <trkpt lat="48.51446" lon="7.16522">
        <ele>910.3</ele>
        <time>2020-11-28T13:47:44Z</time>
      </trkpt>
      <trkpt lat="48.51446" lon="7.16514">
        <ele>911.4</ele>
        <time>2020-11-28T13:47:48Z</time>
      </trkpt>
      <trkpt lat="48.51445" lon="7.16508">
        <ele>914.9</ele>
        <time>2020-11-28T13:47:52Z</time>
      </trkpt>
      <trkpt lat="48.51443" lon="7.16501">
        <ele>917.1</ele>
        <time>2020-11-28T13:47:57Z</time>
      </trkpt>
      <trkpt lat="48.51439" lon="7.16498">
        <ele>919.3</ele>
        <time>2020-11-28T13:48:01Z</time>
      </trkpt>
      <trkpt lat="48.51438" lon="7.16491">
        <ele>919.7</ele>
        <time>2020-11-28T13:48:12Z</time>
      </trkpt>
      <trkpt lat="48.51437" lon="7.16485">
        <ele>920</ele>
        <time>2020-11-28T13:48:18Z</time>
      </trkpt>
      <trkpt lat="48.51435" lon="7.16478">
        <ele>919.8</ele>
        <time>2020-11-28T13:48:32Z</time>
      </trkpt>
      <trkpt lat="48.51433" lon="7.1647">
        <ele>920.2</ele>
        <time>2020-11-28T13:48:37Z</time>
      </trkpt>
      <trkpt lat="48.51431" lon="7.16462">
        <ele>921.3</ele>
        <time>2020-11-28T13:48:41Z</time>
      </trkpt>
      <trkpt lat="48.51429" lon="7.16453">
        <ele>922.7</ele>
        <time>2020-11-28T13:48:45Z</time>
      </trkpt>
      <trkpt lat="48.51426" lon="7.16445">
        <ele>923.4</ele>
        <time>2020-11-28T13:48:49Z</time>
      </trkpt>
      <trkpt lat="48.51423" lon="7.16435">
        <ele>924.7</ele>
        <time>2020-11-28T13:48:53Z</time>
      </trkpt>
      <trkpt lat="48.51419" lon="7.16428">
        <ele>925</ele>
        <time>2020-11-28T13:48:57Z</time>
      </trkpt>
      <trkpt lat="48.51422" lon="7.16435">
        <ele>917.5</ele>
        <time>2020-11-28T13:49:13Z</time>
      </trkpt>
      <trkpt lat="48.51427" lon="7.16449">
        <ele>920.1</ele>
        <time>2020-11-28T13:49:15Z</time>
      </trkpt>
      <trkpt lat="48.51429" lon="7.16458">
        <ele>920.6</ele>
        <time>2020-11-28T13:49:19Z</time>
      </trkpt>
      <trkpt lat="48.51432" lon="7.16475">
        <ele>920.8</ele>
        <time>2020-11-28T13:49:21Z</time>
      </trkpt>
      <trkpt lat="48.51434" lon="7.16485">
        <ele>920.2</ele>
        <time>2020-11-28T13:49:23Z</time>
      </trkpt>
      <trkpt lat="48.51435" lon="7.16492">
        <ele>919.9</ele>
        <time>2020-11-28T13:49:25Z</time>
      </trkpt>
      <trkpt lat="48.51435" lon="7.16499">
        <ele>903.9</ele>
        <time>2020-11-28T13:49:38Z</time>
      </trkpt>
      <trkpt lat="48.51435" lon="7.16506">
        <ele>916.8</ele>
        <time>2020-11-28T13:49:51Z</time>
      </trkpt>
      <trkpt lat="48.51438" lon="7.16513">
        <ele>918.8</ele>
        <time>2020-11-28T13:50:03Z</time>
      </trkpt>
      <trkpt lat="48.51438" lon="7.1652">
        <ele>919.5</ele>
        <time>2020-11-28T13:50:33Z</time>
      </trkpt>
      <trkpt lat="48.51437" lon="7.16527">
        <ele>920.9</ele>
        <time>2020-11-28T13:50:40Z</time>
      </trkpt>
      <trkpt lat="48.51436" lon="7.16534">
        <ele>921</ele>
        <time>2020-11-28T13:50:50Z</time>
      </trkpt>
      <trkpt lat="48.51435" lon="7.16542">
        <ele>921.3</ele>
        <time>2020-11-28T13:51:01Z</time>
      </trkpt>
      <trkpt lat="48.51433" lon="7.16548">
        <ele>921.3</ele>
        <time>2020-11-28T13:51:10Z</time>
      </trkpt>
      <trkpt lat="48.5143" lon="7.16553">
        <ele>921.1</ele>
        <time>2020-11-28T13:51:16Z</time>
      </trkpt>
      <trkpt lat="48.51426" lon="7.1655">
        <ele>920.1</ele>
        <time>2020-11-28T13:51:31Z</time>
      </trkpt>
      <trkpt lat="48.51423" lon="7.16544">
        <ele>920.5</ele>
        <time>2020-11-28T13:51:44Z</time>
      </trkpt>
      <trkpt lat="48.5142" lon="7.16539">
        <ele>922.5</ele>
        <time>2020-11-28T13:51:53Z</time>
      </trkpt>
      <trkpt lat="48.51419" lon="7.16532">
        <ele>929.4</ele>
        <time>2020-11-28T13:52:15Z</time>
      </trkpt>
      <trkpt lat="48.51418" lon="7.16526">
        <ele>930.1</ele>
        <time>2020-11-28T13:52:23Z</time>
      </trkpt>
      <trkpt lat="48.51417" lon="7.16518">
        <ele>930.2</ele>
        <time>2020-11-28T13:52:30Z</time>
      </trkpt>
      <trkpt lat="48.51414" lon="7.16513">
        <ele>923.8</ele>
        <time>2020-11-28T13:52:38Z</time>
      </trkpt>
      <trkpt lat="48.51413" lon="7.16506">
        <ele>933.6</ele>
        <time>2020-11-28T13:52:51Z</time>
      </trkpt>
      <trkpt lat="48.51411" lon="7.165">
        <ele>935.5</ele>
        <time>2020-11-28T13:53:01Z</time>
      </trkpt>
      <trkpt lat="48.5141" lon="7.16492">
        <ele>937</ele>
        <time>2020-11-28T13:53:10Z</time>
      </trkpt>
      <trkpt lat="48.51408" lon="7.16486">
        <ele>937.1</ele>
        <time>2020-11-28T13:53:16Z</time>
      </trkpt>
      <trkpt lat="48.51405" lon="7.16479">
        <ele>937.1</ele>
        <time>2020-11-28T13:53:31Z</time>
      </trkpt>
      <trkpt lat="48.51401" lon="7.1648">
        <ele>936.1</ele>
        <time>2020-11-28T13:54:02Z</time>
      </trkpt>
      <trkpt lat="48.514" lon="7.16487">
        <ele>936.5</ele>
        <time>2020-11-28T13:54:11Z</time>
      </trkpt>
      <trkpt lat="48.51401" lon="7.16494">
        <ele>936.5</ele>
        <time>2020-11-28T13:54:18Z</time>
      </trkpt>
      <trkpt lat="48.51403" lon="7.16501">
        <ele>937.1</ele>
        <time>2020-11-28T13:54:25Z</time>
      </trkpt>
      <trkpt lat="48.51403" lon="7.16508">
        <ele>937.5</ele>
        <time>2020-11-28T13:54:34Z</time>
      </trkpt>
      <trkpt lat="48.51405" lon="7.16514">
        <ele>941.4</ele>
        <time>2020-11-28T13:55:05Z</time>
      </trkpt>
      <trkpt lat="48.51404" lon="7.16521">
        <ele>943.3</ele>
        <time>2020-11-28T13:55:11Z</time>
      </trkpt>
      <trkpt lat="48.51405" lon="7.16529">
        <ele>945.2</ele>
        <time>2020-11-28T13:55:15Z</time>
      </trkpt>
      <trkpt lat="48.51404" lon="7.16536">
        <ele>949.6</ele>
        <time>2020-11-28T13:55:35Z</time>
      </trkpt>
      <trkpt lat="48.51403" lon="7.16542">
        <ele>949.2</ele>
        <time>2020-11-28T13:55:40Z</time>
      </trkpt>
      <trkpt lat="48.51402" lon="7.1655">
        <ele>949.1</ele>
        <time>2020-11-28T13:55:45Z</time>
      </trkpt>
      <trkpt lat="48.51399" lon="7.16556">
        <ele>949.4</ele>
        <time>2020-11-28T13:55:52Z</time>
      </trkpt>
      <trkpt lat="48.514" lon="7.16563">
        <ele>950.7</ele>
        <time>2020-11-28T13:55:59Z</time>
      </trkpt>
      <trkpt lat="48.51396" lon="7.16568">
        <ele>949.7</ele>
        <time>2020-11-28T13:56:20Z</time>
      </trkpt>
      <trkpt lat="48.51392" lon="7.16571">
        <ele>949.5</ele>
        <time>2020-11-28T13:56:25Z</time>
      </trkpt>
      <trkpt lat="48.51388" lon="7.16577">
        <ele>949.9</ele>
        <time>2020-11-28T13:56:31Z</time>
      </trkpt>
      <trkpt lat="48.51388" lon="7.1657">
        <ele>951.6</ele>
        <time>2020-11-28T13:56:59Z</time>
      </trkpt>
      <trkpt lat="48.51384" lon="7.16565">
        <ele>951.5</ele>
        <time>2020-11-28T13:57:18Z</time>
      </trkpt>
      <trkpt lat="48.51384" lon="7.16558">
        <ele>951.8</ele>
        <time>2020-11-28T13:57:25Z</time>
      </trkpt>
      <trkpt lat="48.51382" lon="7.16551">
        <ele>953.4</ele>
        <time>2020-11-28T13:57:35Z</time>
      </trkpt>
      <trkpt lat="48.51381" lon="7.16543">
        <ele>955</ele>
        <time>2020-11-28T13:57:41Z</time>
      </trkpt>
      <trkpt lat="48.5138" lon="7.16537">
        <ele>955.3</ele>
        <time>2020-11-28T13:57:45Z</time>
      </trkpt>
      <trkpt lat="48.51379" lon="7.1653">
        <ele>955.3</ele>
        <time>2020-11-28T13:57:51Z</time>
      </trkpt>
      <trkpt lat="48.51377" lon="7.16524">
        <ele>957.5</ele>
        <time>2020-11-28T13:57:59Z</time>
      </trkpt>
      <trkpt lat="48.51375" lon="7.16517">
        <ele>959.9</ele>
        <time>2020-11-28T13:58:05Z</time>
      </trkpt>
      <trkpt lat="48.51374" lon="7.16509">
        <ele>961.4</ele>
        <time>2020-11-28T13:58:11Z</time>
      </trkpt>
      <trkpt lat="48.51374" lon="7.16501">
        <ele>961.6</ele>
        <time>2020-11-28T13:58:15Z</time>
      </trkpt>
      <trkpt lat="48.51373" lon="7.16494">
        <ele>965</ele>
        <time>2020-11-28T13:59:12Z</time>
      </trkpt>
      <trkpt lat="48.51369" lon="7.1649">
        <ele>966.2</ele>
        <time>2020-11-28T13:59:21Z</time>
      </trkpt>
      <trkpt lat="48.51365" lon="7.16486">
        <ele>967.2</ele>
        <time>2020-11-28T13:59:36Z</time>
      </trkpt>
      <trkpt lat="48.51361" lon="7.1649">
        <ele>968.2</ele>
        <time>2020-11-28T13:59:49Z</time>
      </trkpt>
      <trkpt lat="48.51361" lon="7.16498">
        <ele>967.8</ele>
        <time>2020-11-28T13:59:56Z</time>
      </trkpt>
      <trkpt lat="48.51362" lon="7.16505">
        <ele>967.8</ele>
        <time>2020-11-28T14:00:02Z</time>
      </trkpt>
      <trkpt lat="48.51363" lon="7.16513">
        <ele>967.5</ele>
        <time>2020-11-28T14:00:07Z</time>
      </trkpt>
      <trkpt lat="48.51362" lon="7.1652">
        <ele>966.5</ele>
        <time>2020-11-28T14:00:11Z</time>
      </trkpt>
      <trkpt lat="48.5136" lon="7.16527">
        <ele>966.7</ele>
        <time>2020-11-28T14:00:18Z</time>
      </trkpt>
      <trkpt lat="48.5136" lon="7.16535">
        <ele>966.7</ele>
        <time>2020-11-28T14:00:23Z</time>
      </trkpt>
      <trkpt lat="48.5136" lon="7.16542">
        <ele>966.4</ele>
        <time>2020-11-28T14:00:27Z</time>
      </trkpt>
      <trkpt lat="48.51358" lon="7.16548">
        <ele>966.5</ele>
        <time>2020-11-28T14:00:31Z</time>
      </trkpt>
      <trkpt lat="48.51356" lon="7.16555">
        <ele>967.3</ele>
        <time>2020-11-28T14:00:36Z</time>
      </trkpt>
      <trkpt lat="48.51355" lon="7.16562">
        <ele>967.4</ele>
        <time>2020-11-28T14:00:41Z</time>
      </trkpt>
      <trkpt lat="48.51353" lon="7.16569">
        <ele>967.5</ele>
        <time>2020-11-28T14:00:46Z</time>
      </trkpt>
      <trkpt lat="48.5135" lon="7.16575">
        <ele>968.3</ele>
        <time>2020-11-28T14:00:52Z</time>
      </trkpt>
      <trkpt lat="48.51346" lon="7.16581">
        <ele>968.8</ele>
        <time>2020-11-28T14:00:58Z</time>
      </trkpt>
      <trkpt lat="48.51342" lon="7.16584">
        <ele>969.2</ele>
        <time>2020-11-28T14:01:05Z</time>
      </trkpt>
      <trkpt lat="48.51338" lon="7.16583">
        <ele>969.2</ele>
        <time>2020-11-28T14:01:19Z</time>
      </trkpt>
      <trkpt lat="48.51334" lon="7.16587">
        <ele>971.1</ele>
        <time>2020-11-28T14:01:28Z</time>
      </trkpt>
      <trkpt lat="48.51329" lon="7.16589">
        <ele>972.5</ele>
        <time>2020-11-28T14:01:34Z</time>
      </trkpt>
      <trkpt lat="48.51324" lon="7.16593">
        <ele>973.3</ele>
        <time>2020-11-28T14:01:40Z</time>
      </trkpt>
      <trkpt lat="48.5132" lon="7.16596">
        <ele>973.1</ele>
        <time>2020-11-28T14:01:45Z</time>
      </trkpt>
      <trkpt lat="48.51315" lon="7.16598">
        <ele>971.9</ele>
        <time>2020-11-28T14:01:50Z</time>
      </trkpt>
      <trkpt lat="48.51311" lon="7.166">
        <ele>972.6</ele>
        <time>2020-11-28T14:01:56Z</time>
      </trkpt>
      <trkpt lat="48.51306" lon="7.16603">
        <ele>973.7</ele>
        <time>2020-11-28T14:02:01Z</time>
      </trkpt>
      <trkpt lat="48.51302" lon="7.16607">
        <ele>974.4</ele>
        <time>2020-11-28T14:02:06Z</time>
      </trkpt>
      <trkpt lat="48.51297" lon="7.1661">
        <ele>976.3</ele>
        <time>2020-11-28T14:02:11Z</time>
      </trkpt>
      <trkpt lat="48.51292" lon="7.16613">
        <ele>977.4</ele>
        <time>2020-11-28T14:02:19Z</time>
      </trkpt>
      <trkpt lat="48.51292" lon="7.16605">
        <ele>979.8</ele>
        <time>2020-11-28T14:02:34Z</time>
      </trkpt>
      <trkpt lat="48.51297" lon="7.16602">
        <ele>980.8</ele>
        <time>2020-11-28T14:02:40Z</time>
      </trkpt>
      <trkpt lat="48.513" lon="7.16596">
        <ele>980.3</ele>
        <time>2020-11-28T14:02:46Z</time>
      </trkpt>
      <trkpt lat="48.51303" lon="7.16591">
        <ele>981.5</ele>
        <time>2020-11-28T14:02:54Z</time>
      </trkpt>
      <trkpt lat="48.51307" lon="7.16586">
        <ele>982.5</ele>
        <time>2020-11-28T14:03:01Z</time>
      </trkpt>
      <trkpt lat="48.5131" lon="7.1658">
        <ele>984.6</ele>
        <time>2020-11-28T14:03:06Z</time>
      </trkpt>
      <trkpt lat="48.51311" lon="7.16573">
        <ele>987</ele>
        <time>2020-11-28T14:03:13Z</time>
      </trkpt>
      <trkpt lat="48.51306" lon="7.16575">
        <ele>991.4</ele>
        <time>2020-11-28T14:03:24Z</time>
      </trkpt>
      <trkpt lat="48.51302" lon="7.16578">
        <ele>991.9</ele>
        <time>2020-11-28T14:03:30Z</time>
      </trkpt>
      <trkpt lat="48.51297" lon="7.16579">
        <ele>991.1</ele>
        <time>2020-11-28T14:03:38Z</time>
      </trkpt>
      <trkpt lat="48.51293" lon="7.16582">
        <ele>990.8</ele>
        <time>2020-11-28T14:03:44Z</time>
      </trkpt>
    </trkseg>
  </trk>
</gpx>